<?xml version="1.0" encoding="UTF-8" standalone="no" ?>
<gpx xmlns="http://www.topografix.com/GPX/1/1" xmlns:xsi="http://www.w3.org/2001/XMLSchema-instance" xsi:schemaLocation="http://www.topografix.com/GPX/1/1 http://www.topografix.com/GPX/1/1/gpx.xsd" version="1.1" creator="VisuGPX - https://www.visugpx.com">
  <metadata>
    <name>Les Gorges Trévans</name>
    <desc><![CDATA[Les gorges de Trévans
Passage par le Châteaux et la Chapelle Saint-André.]]></desc>
  </metadata>
  <trk>
    <name><![CDATA[trévans]]></name>
    <extensions>
      <line xmlns="http://www.topografix.com/GPX/gpx_style/0/2">
        <color>ff0000</color>
        <opacity>1</opacity>
        <width>4</width>
      </line>
    </extensions>
    <trkseg>
      <trkpt lat="43.94816" lon="6.22172">
        <ele>604.08</ele>
        <time>2022-06-20T06:35:21Z</time>
      </trkpt>
      <trkpt lat="43.9482" lon="6.22167">
        <ele>604.08</ele>
        <time>2022-06-20T06:35:56Z</time>
      </trkpt>
      <trkpt lat="43.94819" lon="6.22176">
        <ele>604.19</ele>
        <time>2022-06-20T06:36:23Z</time>
      </trkpt>
      <trkpt lat="43.94818" lon="6.22177">
        <ele>604.17</ele>
        <time>2022-06-20T06:36:43Z</time>
      </trkpt>
      <trkpt lat="43.94822" lon="6.22176">
        <ele>604.16</ele>
        <time>2022-06-20T06:37:58Z</time>
      </trkpt>
      <trkpt lat="43.94821" lon="6.22187">
        <ele>603.82</ele>
        <time>2022-06-20T06:38:23Z</time>
      </trkpt>
      <trkpt lat="43.9482" lon="6.2219">
        <ele>603.78</ele>
        <time>2022-06-20T06:38:56Z</time>
      </trkpt>
      <trkpt lat="43.94821" lon="6.22181">
        <ele>603.76</ele>
        <time>2022-06-20T06:39:16Z</time>
      </trkpt>
      <trkpt lat="43.94831" lon="6.22174">
        <ele>604.32</ele>
        <time>2022-06-20T06:39:30Z</time>
      </trkpt>
      <trkpt lat="43.94833" lon="6.22162">
        <ele>604.77</ele>
        <time>2022-06-20T06:39:55Z</time>
      </trkpt>
      <trkpt lat="43.9483" lon="6.22172">
        <ele>604.71</ele>
        <time>2022-06-20T06:40:15Z</time>
      </trkpt>
      <trkpt lat="43.94826" lon="6.22183">
        <ele>604.35</ele>
        <time>2022-06-20T06:40:41Z</time>
      </trkpt>
      <trkpt lat="43.9482" lon="6.22181">
        <ele>604.56</ele>
        <time>2022-06-20T06:41:10Z</time>
      </trkpt>
      <trkpt lat="43.94821" lon="6.22178">
        <ele>604.5</ele>
        <time>2022-06-20T06:41:47Z</time>
      </trkpt>
      <trkpt lat="43.94819" lon="6.22174">
        <ele>604.6</ele>
        <time>2022-06-20T06:42:17Z</time>
      </trkpt>
      <trkpt lat="43.94822" lon="6.22179">
        <ele>604.73</ele>
        <time>2022-06-20T06:42:43Z</time>
      </trkpt>
      <trkpt lat="43.94826" lon="6.2219">
        <ele>604.83</ele>
        <time>2022-06-20T06:42:56Z</time>
      </trkpt>
      <trkpt lat="43.94831" lon="6.222">
        <ele>605.33</ele>
        <time>2022-06-20T06:43:04Z</time>
      </trkpt>
      <trkpt lat="43.94833" lon="6.22212">
        <ele>605.69</ele>
        <time>2022-06-20T06:43:13Z</time>
      </trkpt>
      <trkpt lat="43.94828" lon="6.22223">
        <ele>606.03</ele>
        <time>2022-06-20T06:43:22Z</time>
      </trkpt>
      <trkpt lat="43.9482" lon="6.22232">
        <ele>605.82</ele>
        <time>2022-06-20T06:43:31Z</time>
      </trkpt>
      <trkpt lat="43.94816" lon="6.22244">
        <ele>604.8</ele>
        <time>2022-06-20T06:43:41Z</time>
      </trkpt>
      <trkpt lat="43.94809" lon="6.2226">
        <ele>604.19</ele>
        <time>2022-06-20T06:43:50Z</time>
      </trkpt>
      <trkpt lat="43.94808" lon="6.22273">
        <ele>603.16</ele>
        <time>2022-06-20T06:43:59Z</time>
      </trkpt>
      <trkpt lat="43.94808" lon="6.22285">
        <ele>602.48</ele>
        <time>2022-06-20T06:44:07Z</time>
      </trkpt>
      <trkpt lat="43.94808" lon="6.22298">
        <ele>601.87</ele>
        <time>2022-06-20T06:44:15Z</time>
      </trkpt>
      <trkpt lat="43.94806" lon="6.22308">
        <ele>601.05</ele>
        <time>2022-06-20T06:44:23Z</time>
      </trkpt>
      <trkpt lat="43.94806" lon="6.22322">
        <ele>600.15</ele>
        <time>2022-06-20T06:44:33Z</time>
      </trkpt>
      <trkpt lat="43.94808" lon="6.22335">
        <ele>599.73</ele>
        <time>2022-06-20T06:44:42Z</time>
      </trkpt>
      <trkpt lat="43.94812" lon="6.22347">
        <ele>599.37</ele>
        <time>2022-06-20T06:44:51Z</time>
      </trkpt>
      <trkpt lat="43.94814" lon="6.22361">
        <ele>599.02</ele>
        <time>2022-06-20T06:45:00Z</time>
      </trkpt>
      <trkpt lat="43.94815" lon="6.22376">
        <ele>598.83</ele>
        <time>2022-06-20T06:45:09Z</time>
      </trkpt>
      <trkpt lat="43.94814" lon="6.22391">
        <ele>598.82</ele>
        <time>2022-06-20T06:45:18Z</time>
      </trkpt>
      <trkpt lat="43.94811" lon="6.22408">
        <ele>598.84</ele>
        <time>2022-06-20T06:45:27Z</time>
      </trkpt>
      <trkpt lat="43.9481" lon="6.22422">
        <ele>598.89</ele>
        <time>2022-06-20T06:45:37Z</time>
      </trkpt>
      <trkpt lat="43.94807" lon="6.22435">
        <ele>598.91</ele>
        <time>2022-06-20T06:45:46Z</time>
      </trkpt>
      <trkpt lat="43.94802" lon="6.22451">
        <ele>599</ele>
        <time>2022-06-20T06:45:55Z</time>
      </trkpt>
      <trkpt lat="43.948" lon="6.22466">
        <ele>599.1</ele>
        <time>2022-06-20T06:46:06Z</time>
      </trkpt>
      <trkpt lat="43.94798" lon="6.22481">
        <ele>599.39</ele>
        <time>2022-06-20T06:46:16Z</time>
      </trkpt>
      <trkpt lat="43.94794" lon="6.22494">
        <ele>599.92</ele>
        <time>2022-06-20T06:46:25Z</time>
      </trkpt>
      <trkpt lat="43.94788" lon="6.22508">
        <ele>600.13</ele>
        <time>2022-06-20T06:46:34Z</time>
      </trkpt>
      <trkpt lat="43.94783" lon="6.2252">
        <ele>600.53</ele>
        <time>2022-06-20T06:46:42Z</time>
      </trkpt>
      <trkpt lat="43.94777" lon="6.22531">
        <ele>600.71</ele>
        <time>2022-06-20T06:46:50Z</time>
      </trkpt>
      <trkpt lat="43.94771" lon="6.22542">
        <ele>600.86</ele>
        <time>2022-06-20T06:46:58Z</time>
      </trkpt>
      <trkpt lat="43.94765" lon="6.22553">
        <ele>600.86</ele>
        <time>2022-06-20T06:47:05Z</time>
      </trkpt>
      <trkpt lat="43.94759" lon="6.22562">
        <ele>600.91</ele>
        <time>2022-06-20T06:47:13Z</time>
      </trkpt>
      <trkpt lat="43.94751" lon="6.22569">
        <ele>601.09</ele>
        <time>2022-06-20T06:47:21Z</time>
      </trkpt>
      <trkpt lat="43.94745" lon="6.22559">
        <ele>602.66</ele>
        <time>2022-06-20T06:47:37Z</time>
      </trkpt>
      <trkpt lat="43.9474" lon="6.22556">
        <ele>603.11</ele>
        <time>2022-06-20T06:48:02Z</time>
      </trkpt>
      <trkpt lat="43.94728" lon="6.22551">
        <ele>603.17</ele>
        <time>2022-06-20T06:48:17Z</time>
      </trkpt>
      <trkpt lat="43.94723" lon="6.22546">
        <ele>603.55</ele>
        <time>2022-06-20T06:48:39Z</time>
      </trkpt>
      <trkpt lat="43.94723" lon="6.22542">
        <ele>602.88</ele>
        <time>2022-06-20T06:50:06Z</time>
      </trkpt>
      <trkpt lat="43.94724" lon="6.22528">
        <ele>604.37</ele>
        <time>2022-06-20T06:50:28Z</time>
      </trkpt>
      <trkpt lat="43.94728" lon="6.22513">
        <ele>606.33</ele>
        <time>2022-06-20T06:50:41Z</time>
      </trkpt>
      <trkpt lat="43.94735" lon="6.225">
        <ele>608.14</ele>
        <time>2022-06-20T06:50:55Z</time>
      </trkpt>
      <trkpt lat="43.94737" lon="6.22487">
        <ele>610.27</ele>
        <time>2022-06-20T06:51:09Z</time>
      </trkpt>
      <trkpt lat="43.94728" lon="6.2249">
        <ele>612.4</ele>
        <time>2022-06-20T06:51:24Z</time>
      </trkpt>
      <trkpt lat="43.94718" lon="6.22483">
        <ele>615.24</ele>
        <time>2022-06-20T06:51:41Z</time>
      </trkpt>
      <trkpt lat="43.94711" lon="6.22477">
        <ele>617.18</ele>
        <time>2022-06-20T06:51:55Z</time>
      </trkpt>
      <trkpt lat="43.94704" lon="6.2247">
        <ele>619.43</ele>
        <time>2022-06-20T06:52:10Z</time>
      </trkpt>
      <trkpt lat="43.94696" lon="6.22463">
        <ele>621.35</ele>
        <time>2022-06-20T06:52:25Z</time>
      </trkpt>
      <trkpt lat="43.9469" lon="6.22457">
        <ele>623.3</ele>
        <time>2022-06-20T06:52:40Z</time>
      </trkpt>
      <trkpt lat="43.94679" lon="6.22447">
        <ele>625.66</ele>
        <time>2022-06-20T06:52:55Z</time>
      </trkpt>
      <trkpt lat="43.94671" lon="6.22439">
        <ele>628.26</ele>
        <time>2022-06-20T06:53:12Z</time>
      </trkpt>
      <trkpt lat="43.94666" lon="6.22431">
        <ele>630.66</ele>
        <time>2022-06-20T06:53:27Z</time>
      </trkpt>
      <trkpt lat="43.94658" lon="6.22425">
        <ele>632.33</ele>
        <time>2022-06-20T06:53:40Z</time>
      </trkpt>
      <trkpt lat="43.94651" lon="6.22431">
        <ele>635.09</ele>
        <time>2022-06-20T06:53:57Z</time>
      </trkpt>
      <trkpt lat="43.94642" lon="6.22435">
        <ele>637.07</ele>
        <time>2022-06-20T06:54:12Z</time>
      </trkpt>
      <trkpt lat="43.94636" lon="6.22435">
        <ele>638.34</ele>
        <time>2022-06-20T06:54:24Z</time>
      </trkpt>
      <trkpt lat="43.94635" lon="6.22424">
        <ele>640.47</ele>
        <time>2022-06-20T06:54:39Z</time>
      </trkpt>
      <trkpt lat="43.94625" lon="6.22424">
        <ele>642.29</ele>
        <time>2022-06-20T06:54:57Z</time>
      </trkpt>
      <trkpt lat="43.94619" lon="6.22429">
        <ele>644.48</ele>
        <time>2022-06-20T06:55:12Z</time>
      </trkpt>
      <trkpt lat="43.94613" lon="6.22441">
        <ele>646.44</ele>
        <time>2022-06-20T06:55:29Z</time>
      </trkpt>
      <trkpt lat="43.94607" lon="6.22452">
        <ele>648.33</ele>
        <time>2022-06-20T06:55:44Z</time>
      </trkpt>
      <trkpt lat="43.94601" lon="6.22465">
        <ele>650.51</ele>
        <time>2022-06-20T06:56:04Z</time>
      </trkpt>
      <trkpt lat="43.94598" lon="6.22455">
        <ele>652.92</ele>
        <time>2022-06-20T06:56:21Z</time>
      </trkpt>
      <trkpt lat="43.94594" lon="6.22448">
        <ele>655.38</ele>
        <time>2022-06-20T06:56:39Z</time>
      </trkpt>
      <trkpt lat="43.94599" lon="6.22434">
        <ele>656.98</ele>
        <time>2022-06-20T06:56:51Z</time>
      </trkpt>
      <trkpt lat="43.94599" lon="6.2242">
        <ele>658.98</ele>
        <time>2022-06-20T06:57:08Z</time>
      </trkpt>
      <trkpt lat="43.94597" lon="6.22406">
        <ele>661.04</ele>
        <time>2022-06-20T06:57:22Z</time>
      </trkpt>
      <trkpt lat="43.94608" lon="6.22395">
        <ele>664</ele>
        <time>2022-06-20T06:57:39Z</time>
      </trkpt>
      <trkpt lat="43.946" lon="6.22392">
        <ele>665.9</ele>
        <time>2022-06-20T06:57:55Z</time>
      </trkpt>
      <trkpt lat="43.94592" lon="6.22403">
        <ele>667.94</ele>
        <time>2022-06-20T06:58:12Z</time>
      </trkpt>
      <trkpt lat="43.94593" lon="6.22402">
        <ele>669.57</ele>
        <time>2022-06-20T06:58:28Z</time>
      </trkpt>
      <trkpt lat="43.94584" lon="6.22396">
        <ele>671.22</ele>
        <time>2022-06-20T06:58:42Z</time>
      </trkpt>
      <trkpt lat="43.94578" lon="6.22403">
        <ele>674.23</ele>
        <time>2022-06-20T06:59:01Z</time>
      </trkpt>
      <trkpt lat="43.94571" lon="6.22411">
        <ele>676.43</ele>
        <time>2022-06-20T06:59:18Z</time>
      </trkpt>
      <trkpt lat="43.94563" lon="6.22421">
        <ele>677.9</ele>
        <time>2022-06-20T06:59:32Z</time>
      </trkpt>
      <trkpt lat="43.94565" lon="6.22405">
        <ele>679.98</ele>
        <time>2022-06-20T06:59:52Z</time>
      </trkpt>
      <trkpt lat="43.94569" lon="6.22401">
        <ele>682.06</ele>
        <time>2022-06-20T07:00:07Z</time>
      </trkpt>
      <trkpt lat="43.94576" lon="6.22389">
        <ele>682.18</ele>
        <time>2022-06-20T07:00:21Z</time>
      </trkpt>
      <trkpt lat="43.9458" lon="6.22378">
        <ele>681.9</ele>
        <time>2022-06-20T07:00:35Z</time>
      </trkpt>
      <trkpt lat="43.94576" lon="6.22365">
        <ele>683.04</ele>
        <time>2022-06-20T07:00:48Z</time>
      </trkpt>
      <trkpt lat="43.94569" lon="6.22358">
        <ele>683.93</ele>
        <time>2022-06-20T07:00:59Z</time>
      </trkpt>
      <trkpt lat="43.94563" lon="6.22343">
        <ele>685.56</ele>
        <time>2022-06-20T07:01:13Z</time>
      </trkpt>
      <trkpt lat="43.94554" lon="6.22328">
        <ele>687.58</ele>
        <time>2022-06-20T07:01:32Z</time>
      </trkpt>
      <trkpt lat="43.94547" lon="6.22317">
        <ele>689.37</ele>
        <time>2022-06-20T07:01:50Z</time>
      </trkpt>
      <trkpt lat="43.94535" lon="6.22302">
        <ele>691.49</ele>
        <time>2022-06-20T07:02:06Z</time>
      </trkpt>
      <trkpt lat="43.94527" lon="6.22279">
        <ele>692.69</ele>
        <time>2022-06-20T07:02:24Z</time>
      </trkpt>
      <trkpt lat="43.94521" lon="6.22268">
        <ele>693.84</ele>
        <time>2022-06-20T07:02:39Z</time>
      </trkpt>
      <trkpt lat="43.94511" lon="6.2226">
        <ele>695.54</ele>
        <time>2022-06-20T07:02:52Z</time>
      </trkpt>
      <trkpt lat="43.94504" lon="6.22251">
        <ele>698.03</ele>
        <time>2022-06-20T07:03:10Z</time>
      </trkpt>
      <trkpt lat="43.94498" lon="6.22242">
        <ele>699.93</ele>
        <time>2022-06-20T07:03:23Z</time>
      </trkpt>
      <trkpt lat="43.94492" lon="6.22238">
        <ele>702.55</ele>
        <time>2022-06-20T07:03:45Z</time>
      </trkpt>
      <trkpt lat="43.94489" lon="6.22239">
        <ele>702.57</ele>
        <time>2022-06-20T07:05:04Z</time>
      </trkpt>
      <trkpt lat="43.94494" lon="6.22239">
        <ele>702.71</ele>
        <time>2022-06-20T07:05:49Z</time>
      </trkpt>
      <trkpt lat="43.94496" lon="6.2224">
        <ele>702.68</ele>
        <time>2022-06-20T07:06:18Z</time>
      </trkpt>
      <trkpt lat="43.94491" lon="6.2224">
        <ele>704.2</ele>
        <time>2022-06-20T07:06:34Z</time>
      </trkpt>
      <trkpt lat="43.94485" lon="6.22229">
        <ele>706.68</ele>
        <time>2022-06-20T07:06:50Z</time>
      </trkpt>
      <trkpt lat="43.94476" lon="6.22222">
        <ele>708.4</ele>
        <time>2022-06-20T07:07:05Z</time>
      </trkpt>
      <trkpt lat="43.94469" lon="6.2223">
        <ele>710.84</ele>
        <time>2022-06-20T07:07:20Z</time>
      </trkpt>
      <trkpt lat="43.94463" lon="6.22221">
        <ele>713.07</ele>
        <time>2022-06-20T07:07:33Z</time>
      </trkpt>
      <trkpt lat="43.94459" lon="6.22211">
        <ele>715.23</ele>
        <time>2022-06-20T07:07:48Z</time>
      </trkpt>
      <trkpt lat="43.94454" lon="6.22197">
        <ele>716.75</ele>
        <time>2022-06-20T07:08:02Z</time>
      </trkpt>
      <trkpt lat="43.94444" lon="6.22186">
        <ele>717.91</ele>
        <time>2022-06-20T07:08:14Z</time>
      </trkpt>
      <trkpt lat="43.94442" lon="6.22186">
        <ele>719.58</ele>
        <time>2022-06-20T07:08:28Z</time>
      </trkpt>
      <trkpt lat="43.94441" lon="6.22195">
        <ele>722.36</ele>
        <time>2022-06-20T07:08:45Z</time>
      </trkpt>
      <trkpt lat="43.94432" lon="6.22187">
        <ele>724.78</ele>
        <time>2022-06-20T07:09:03Z</time>
      </trkpt>
      <trkpt lat="43.94424" lon="6.2218">
        <ele>726.56</ele>
        <time>2022-06-20T07:09:16Z</time>
      </trkpt>
      <trkpt lat="43.94422" lon="6.22173">
        <ele>727.83</ele>
        <time>2022-06-20T07:09:26Z</time>
      </trkpt>
      <trkpt lat="43.94416" lon="6.22165">
        <ele>730.16</ele>
        <time>2022-06-20T07:09:41Z</time>
      </trkpt>
      <trkpt lat="43.94412" lon="6.22168">
        <ele>733.56</ele>
        <time>2022-06-20T07:10:02Z</time>
      </trkpt>
      <trkpt lat="43.94405" lon="6.2216">
        <ele>735.25</ele>
        <time>2022-06-20T07:10:15Z</time>
      </trkpt>
      <trkpt lat="43.94403" lon="6.22147">
        <ele>736.82</ele>
        <time>2022-06-20T07:10:29Z</time>
      </trkpt>
      <trkpt lat="43.94397" lon="6.22137">
        <ele>737.61</ele>
        <time>2022-06-20T07:10:43Z</time>
      </trkpt>
      <trkpt lat="43.94399" lon="6.22124">
        <ele>738.86</ele>
        <time>2022-06-20T07:10:54Z</time>
      </trkpt>
      <trkpt lat="43.94407" lon="6.22109">
        <ele>740.66</ele>
        <time>2022-06-20T07:11:08Z</time>
      </trkpt>
      <trkpt lat="43.94406" lon="6.22098">
        <ele>742.75</ele>
        <time>2022-06-20T07:11:20Z</time>
      </trkpt>
      <trkpt lat="43.94402" lon="6.22092">
        <ele>745.69</ele>
        <time>2022-06-20T07:11:41Z</time>
      </trkpt>
      <trkpt lat="43.94393" lon="6.22088">
        <ele>748.07</ele>
        <time>2022-06-20T07:12:03Z</time>
      </trkpt>
      <trkpt lat="43.94386" lon="6.2208">
        <ele>750.71</ele>
        <time>2022-06-20T07:12:27Z</time>
      </trkpt>
      <trkpt lat="43.94381" lon="6.22071">
        <ele>752.63</ele>
        <time>2022-06-20T07:12:43Z</time>
      </trkpt>
      <trkpt lat="43.9437" lon="6.22056">
        <ele>754.36</ele>
        <time>2022-06-20T07:12:57Z</time>
      </trkpt>
      <trkpt lat="43.94352" lon="6.22047">
        <ele>756.72</ele>
        <time>2022-06-20T07:13:16Z</time>
      </trkpt>
      <trkpt lat="43.94339" lon="6.22033">
        <ele>758.66</ele>
        <time>2022-06-20T07:13:32Z</time>
      </trkpt>
      <trkpt lat="43.94328" lon="6.22021">
        <ele>760.03</ele>
        <time>2022-06-20T07:13:45Z</time>
      </trkpt>
      <trkpt lat="43.94323" lon="6.22012">
        <ele>761.59</ele>
        <time>2022-06-20T07:13:58Z</time>
      </trkpt>
      <trkpt lat="43.94319" lon="6.22001">
        <ele>763.36</ele>
        <time>2022-06-20T07:14:08Z</time>
      </trkpt>
      <trkpt lat="43.94312" lon="6.21995">
        <ele>765.07</ele>
        <time>2022-06-20T07:14:22Z</time>
      </trkpt>
      <trkpt lat="43.94309" lon="6.21984">
        <ele>766.37</ele>
        <time>2022-06-20T07:14:34Z</time>
      </trkpt>
      <trkpt lat="43.94304" lon="6.21973">
        <ele>768.76</ele>
        <time>2022-06-20T07:14:50Z</time>
      </trkpt>
      <trkpt lat="43.94303" lon="6.21958">
        <ele>770.5</ele>
        <time>2022-06-20T07:15:05Z</time>
      </trkpt>
      <trkpt lat="43.94295" lon="6.21946">
        <ele>772.39</ele>
        <time>2022-06-20T07:15:21Z</time>
      </trkpt>
      <trkpt lat="43.94289" lon="6.21936">
        <ele>774.52</ele>
        <time>2022-06-20T07:15:36Z</time>
      </trkpt>
      <trkpt lat="43.94286" lon="6.21927">
        <ele>776.02</ele>
        <time>2022-06-20T07:15:49Z</time>
      </trkpt>
      <trkpt lat="43.94277" lon="6.21919">
        <ele>777.68</ele>
        <time>2022-06-20T07:16:03Z</time>
      </trkpt>
      <trkpt lat="43.94271" lon="6.21909">
        <ele>779.59</ele>
        <time>2022-06-20T07:16:20Z</time>
      </trkpt>
      <trkpt lat="43.94256" lon="6.21893">
        <ele>781.29</ele>
        <time>2022-06-20T07:16:38Z</time>
      </trkpt>
      <trkpt lat="43.94251" lon="6.21884">
        <ele>783.28</ele>
        <time>2022-06-20T07:16:53Z</time>
      </trkpt>
      <trkpt lat="43.94255" lon="6.2186">
        <ele>785.57</ele>
        <time>2022-06-20T07:17:14Z</time>
      </trkpt>
      <trkpt lat="43.94258" lon="6.21867">
        <ele>788.41</ele>
        <time>2022-06-20T07:17:39Z</time>
      </trkpt>
      <trkpt lat="43.94254" lon="6.21857">
        <ele>790.3</ele>
        <time>2022-06-20T07:17:55Z</time>
      </trkpt>
      <trkpt lat="43.94245" lon="6.21846">
        <ele>791.74</ele>
        <time>2022-06-20T07:18:08Z</time>
      </trkpt>
      <trkpt lat="43.94241" lon="6.21826">
        <ele>794.06</ele>
        <time>2022-06-20T07:18:24Z</time>
      </trkpt>
      <trkpt lat="43.94239" lon="6.2181">
        <ele>796.02</ele>
        <time>2022-06-20T07:18:40Z</time>
      </trkpt>
      <trkpt lat="43.94242" lon="6.21795">
        <ele>797.7</ele>
        <time>2022-06-20T07:18:54Z</time>
      </trkpt>
      <trkpt lat="43.94242" lon="6.2178">
        <ele>800.09</ele>
        <time>2022-06-20T07:19:10Z</time>
      </trkpt>
      <trkpt lat="43.94243" lon="6.21763">
        <ele>802.27</ele>
        <time>2022-06-20T07:19:25Z</time>
      </trkpt>
      <trkpt lat="43.94239" lon="6.21749">
        <ele>803.93</ele>
        <time>2022-06-20T07:19:39Z</time>
      </trkpt>
      <trkpt lat="43.94233" lon="6.21735">
        <ele>805.56</ele>
        <time>2022-06-20T07:19:53Z</time>
      </trkpt>
      <trkpt lat="43.94233" lon="6.21716">
        <ele>806.74</ele>
        <time>2022-06-20T07:20:07Z</time>
      </trkpt>
      <trkpt lat="43.94225" lon="6.21703">
        <ele>808.11</ele>
        <time>2022-06-20T07:20:22Z</time>
      </trkpt>
      <trkpt lat="43.94217" lon="6.21692">
        <ele>809.48</ele>
        <time>2022-06-20T07:20:36Z</time>
      </trkpt>
      <trkpt lat="43.94214" lon="6.21696">
        <ele>811.48</ele>
        <time>2022-06-20T07:20:54Z</time>
      </trkpt>
      <trkpt lat="43.94208" lon="6.21701">
        <ele>813.85</ele>
        <time>2022-06-20T07:21:12Z</time>
      </trkpt>
      <trkpt lat="43.94197" lon="6.21703">
        <ele>815.62</ele>
        <time>2022-06-20T07:21:28Z</time>
      </trkpt>
      <trkpt lat="43.9419" lon="6.21709">
        <ele>817.11</ele>
        <time>2022-06-20T07:21:43Z</time>
      </trkpt>
      <trkpt lat="43.94181" lon="6.21713">
        <ele>818.43</ele>
        <time>2022-06-20T07:21:55Z</time>
      </trkpt>
      <trkpt lat="43.94174" lon="6.21718">
        <ele>820.37</ele>
        <time>2022-06-20T07:22:13Z</time>
      </trkpt>
      <trkpt lat="43.94165" lon="6.21717">
        <ele>822.4</ele>
        <time>2022-06-20T07:22:30Z</time>
      </trkpt>
      <trkpt lat="43.94159" lon="6.21708">
        <ele>824.97</ele>
        <time>2022-06-20T07:22:48Z</time>
      </trkpt>
      <trkpt lat="43.94155" lon="6.21698">
        <ele>826.61</ele>
        <time>2022-06-20T07:23:02Z</time>
      </trkpt>
      <trkpt lat="43.94148" lon="6.21687">
        <ele>828.36</ele>
        <time>2022-06-20T07:23:17Z</time>
      </trkpt>
      <trkpt lat="43.94144" lon="6.21675">
        <ele>830.16</ele>
        <time>2022-06-20T07:23:32Z</time>
      </trkpt>
      <trkpt lat="43.94143" lon="6.21676">
        <ele>852.6</ele>
      </trkpt>
      <trkpt lat="43.94144" lon="6.21674">
        <ele>834.83</ele>
        <time>2022-06-20T07:24:55Z</time>
      </trkpt>
      <trkpt lat="43.94145" lon="6.21686">
        <ele>851</ele>
        <time>2022-06-20T07:28:15Z</time>
      </trkpt>
      <trkpt lat="43.9414" lon="6.2168">
        <ele>836.27</ele>
        <time>2022-06-20T07:28:29Z</time>
      </trkpt>
      <trkpt lat="43.94137" lon="6.21668">
        <ele>837.45</ele>
        <time>2022-06-20T07:28:42Z</time>
      </trkpt>
      <trkpt lat="43.94138" lon="6.21654">
        <ele>839.45</ele>
        <time>2022-06-20T07:28:55Z</time>
      </trkpt>
      <trkpt lat="43.94142" lon="6.21639">
        <ele>840.82</ele>
        <time>2022-06-20T07:29:08Z</time>
      </trkpt>
      <trkpt lat="43.94147" lon="6.21627">
        <ele>842.58</ele>
        <time>2022-06-20T07:29:23Z</time>
      </trkpt>
      <trkpt lat="43.94151" lon="6.21613">
        <ele>843.9</ele>
        <time>2022-06-20T07:29:36Z</time>
      </trkpt>
      <trkpt lat="43.94148" lon="6.21598">
        <ele>844.89</ele>
        <time>2022-06-20T07:29:50Z</time>
      </trkpt>
      <trkpt lat="43.94145" lon="6.21584">
        <ele>846.49</ele>
        <time>2022-06-20T07:30:04Z</time>
      </trkpt>
      <trkpt lat="43.9415" lon="6.21573">
        <ele>847.32</ele>
        <time>2022-06-20T07:30:15Z</time>
      </trkpt>
      <trkpt lat="43.94151" lon="6.21554">
        <ele>847.85</ele>
        <time>2022-06-20T07:30:28Z</time>
      </trkpt>
      <trkpt lat="43.94153" lon="6.21538">
        <ele>847.66</ele>
        <time>2022-06-20T07:30:41Z</time>
      </trkpt>
      <trkpt lat="43.94147" lon="6.21517">
        <ele>847.2</ele>
        <time>2022-06-20T07:30:56Z</time>
      </trkpt>
      <trkpt lat="43.94144" lon="6.21504">
        <ele>846.57</ele>
        <time>2022-06-20T07:31:06Z</time>
      </trkpt>
      <trkpt lat="43.94136" lon="6.21487">
        <ele>844.86</ele>
        <time>2022-06-20T07:31:20Z</time>
      </trkpt>
      <trkpt lat="43.94132" lon="6.21469">
        <ele>843.8</ele>
        <time>2022-06-20T07:31:30Z</time>
      </trkpt>
      <trkpt lat="43.94129" lon="6.21453">
        <ele>842.8</ele>
        <time>2022-06-20T07:31:41Z</time>
      </trkpt>
      <trkpt lat="43.94131" lon="6.21441">
        <ele>842.12</ele>
        <time>2022-06-20T07:31:52Z</time>
      </trkpt>
      <trkpt lat="43.94125" lon="6.21422">
        <ele>841.32</ele>
        <time>2022-06-20T07:32:07Z</time>
      </trkpt>
      <trkpt lat="43.94119" lon="6.21409">
        <ele>840.77</ele>
        <time>2022-06-20T07:32:20Z</time>
      </trkpt>
      <trkpt lat="43.94106" lon="6.21393">
        <ele>840.37</ele>
        <time>2022-06-20T07:32:34Z</time>
      </trkpt>
      <trkpt lat="43.94096" lon="6.21387">
        <ele>838.81</ele>
        <time>2022-06-20T07:32:45Z</time>
      </trkpt>
      <trkpt lat="43.94087" lon="6.21384">
        <ele>837.53</ele>
        <time>2022-06-20T07:32:55Z</time>
      </trkpt>
      <trkpt lat="43.94079" lon="6.21376">
        <ele>836.07</ele>
        <time>2022-06-20T07:33:06Z</time>
      </trkpt>
      <trkpt lat="43.94072" lon="6.21371">
        <ele>834.51</ele>
        <time>2022-06-20T07:33:17Z</time>
      </trkpt>
      <trkpt lat="43.94059" lon="6.21366">
        <ele>833.33</ele>
        <time>2022-06-20T07:33:28Z</time>
      </trkpt>
      <trkpt lat="43.94045" lon="6.2136">
        <ele>832.18</ele>
        <time>2022-06-20T07:33:40Z</time>
      </trkpt>
      <trkpt lat="43.94033" lon="6.21352">
        <ele>831.21</ele>
        <time>2022-06-20T07:33:51Z</time>
      </trkpt>
      <trkpt lat="43.94026" lon="6.2134">
        <ele>830.87</ele>
        <time>2022-06-20T07:34:03Z</time>
      </trkpt>
      <trkpt lat="43.9402" lon="6.2133">
        <ele>830.57</ele>
        <time>2022-06-20T07:34:15Z</time>
      </trkpt>
      <trkpt lat="43.94014" lon="6.21315">
        <ele>830.49</ele>
        <time>2022-06-20T07:34:29Z</time>
      </trkpt>
      <trkpt lat="43.94007" lon="6.21301">
        <ele>830.59</ele>
        <time>2022-06-20T07:34:44Z</time>
      </trkpt>
      <trkpt lat="43.93991" lon="6.21279">
        <ele>829.36</ele>
        <time>2022-06-20T07:34:58Z</time>
      </trkpt>
      <trkpt lat="43.93981" lon="6.21266">
        <ele>828.34</ele>
        <time>2022-06-20T07:35:10Z</time>
      </trkpt>
      <trkpt lat="43.93971" lon="6.21254">
        <ele>827.48</ele>
        <time>2022-06-20T07:35:23Z</time>
      </trkpt>
      <trkpt lat="43.9396" lon="6.21241">
        <ele>826.24</ele>
        <time>2022-06-20T07:35:35Z</time>
      </trkpt>
      <trkpt lat="43.93948" lon="6.21233">
        <ele>825.14</ele>
        <time>2022-06-20T07:35:48Z</time>
      </trkpt>
      <trkpt lat="43.9394" lon="6.21224">
        <ele>825.15</ele>
        <time>2022-06-20T07:36:00Z</time>
      </trkpt>
      <trkpt lat="43.93933" lon="6.21209">
        <ele>825.3</ele>
        <time>2022-06-20T07:36:15Z</time>
      </trkpt>
      <trkpt lat="43.93924" lon="6.21196">
        <ele>825.78</ele>
        <time>2022-06-20T07:36:25Z</time>
      </trkpt>
      <trkpt lat="43.93915" lon="6.21184">
        <ele>826.24</ele>
        <time>2022-06-20T07:36:37Z</time>
      </trkpt>
      <trkpt lat="43.9391" lon="6.21175">
        <ele>825.75</ele>
        <time>2022-06-20T07:36:48Z</time>
      </trkpt>
      <trkpt lat="43.93896" lon="6.21168">
        <ele>824.98</ele>
        <time>2022-06-20T07:37:00Z</time>
      </trkpt>
      <trkpt lat="43.93885" lon="6.2116">
        <ele>824.59</ele>
        <time>2022-06-20T07:37:11Z</time>
      </trkpt>
      <trkpt lat="43.93872" lon="6.21151">
        <ele>824.44</ele>
        <time>2022-06-20T07:37:24Z</time>
      </trkpt>
      <trkpt lat="43.93862" lon="6.21148">
        <ele>824.08</ele>
        <time>2022-06-20T07:37:34Z</time>
      </trkpt>
      <trkpt lat="43.93846" lon="6.21145">
        <ele>823.2</ele>
        <time>2022-06-20T07:37:49Z</time>
      </trkpt>
      <trkpt lat="43.93836" lon="6.21141">
        <ele>822.99</ele>
        <time>2022-06-20T07:37:58Z</time>
      </trkpt>
      <trkpt lat="43.93827" lon="6.21137">
        <ele>822.69</ele>
        <time>2022-06-20T07:38:08Z</time>
      </trkpt>
      <trkpt lat="43.93813" lon="6.21133">
        <ele>822.82</ele>
        <time>2022-06-20T07:38:23Z</time>
      </trkpt>
      <trkpt lat="43.93798" lon="6.21124">
        <ele>823.85</ele>
        <time>2022-06-20T07:38:37Z</time>
      </trkpt>
      <trkpt lat="43.93794" lon="6.21113">
        <ele>824.34</ele>
        <time>2022-06-20T07:38:50Z</time>
      </trkpt>
      <trkpt lat="43.93786" lon="6.21104">
        <ele>824.46</ele>
        <time>2022-06-20T07:39:05Z</time>
      </trkpt>
      <trkpt lat="43.93769" lon="6.21097">
        <ele>823.95</ele>
        <time>2022-06-20T07:39:17Z</time>
      </trkpt>
      <trkpt lat="43.93757" lon="6.21094">
        <ele>823.96</ele>
        <time>2022-06-20T07:39:28Z</time>
      </trkpt>
      <trkpt lat="43.9374" lon="6.21091">
        <ele>823.63</ele>
        <time>2022-06-20T07:39:43Z</time>
      </trkpt>
      <trkpt lat="43.93728" lon="6.21091">
        <ele>823.42</ele>
        <time>2022-06-20T07:39:58Z</time>
      </trkpt>
      <trkpt lat="43.93705" lon="6.21094">
        <ele>823.64</ele>
        <time>2022-06-20T07:40:13Z</time>
      </trkpt>
      <trkpt lat="43.93684" lon="6.21101">
        <ele>823.05</ele>
        <time>2022-06-20T07:40:29Z</time>
      </trkpt>
      <trkpt lat="43.9367" lon="6.21102">
        <ele>821.77</ele>
        <time>2022-06-20T07:40:41Z</time>
      </trkpt>
      <trkpt lat="43.93674" lon="6.21095">
        <ele>820.03</ele>
        <time>2022-06-20T07:40:54Z</time>
      </trkpt>
      <trkpt lat="43.93682" lon="6.21083">
        <ele>818.42</ele>
        <time>2022-06-20T07:41:06Z</time>
      </trkpt>
      <trkpt lat="43.93688" lon="6.21073">
        <ele>816.61</ele>
        <time>2022-06-20T07:41:17Z</time>
      </trkpt>
      <trkpt lat="43.93697" lon="6.21064">
        <ele>815.2</ele>
        <time>2022-06-20T07:41:29Z</time>
      </trkpt>
      <trkpt lat="43.93695" lon="6.21051">
        <ele>813.71</ele>
        <time>2022-06-20T07:41:43Z</time>
      </trkpt>
      <trkpt lat="43.93686" lon="6.21046">
        <ele>813.34</ele>
        <time>2022-06-20T07:42:03Z</time>
      </trkpt>
      <trkpt lat="43.93679" lon="6.2105">
        <ele>813.02</ele>
        <time>2022-06-20T07:42:25Z</time>
      </trkpt>
      <trkpt lat="43.93667" lon="6.21049">
        <ele>813.04</ele>
        <time>2022-06-20T07:42:39Z</time>
      </trkpt>
      <trkpt lat="43.93664" lon="6.21044">
        <ele>811.91</ele>
        <time>2022-06-20T07:43:01Z</time>
      </trkpt>
      <trkpt lat="43.93656" lon="6.21037">
        <ele>811.41</ele>
        <time>2022-06-20T07:43:16Z</time>
      </trkpt>
      <trkpt lat="43.93652" lon="6.21036">
        <ele>811.23</ele>
        <time>2022-06-20T07:43:35Z</time>
      </trkpt>
      <trkpt lat="43.93657" lon="6.21044">
        <ele>811.27</ele>
        <time>2022-06-20T07:43:50Z</time>
      </trkpt>
      <trkpt lat="43.9366" lon="6.21052">
        <ele>811.65</ele>
        <time>2022-06-20T07:44:06Z</time>
      </trkpt>
      <trkpt lat="43.93661" lon="6.21053">
        <ele>812.4</ele>
        <time>2022-06-20T07:44:32Z</time>
      </trkpt>
      <trkpt lat="43.93668" lon="6.21044">
        <ele>812.46</ele>
        <time>2022-06-20T07:44:52Z</time>
      </trkpt>
      <trkpt lat="43.93663" lon="6.21029">
        <ele>811.28</ele>
        <time>2022-06-20T07:45:07Z</time>
      </trkpt>
      <trkpt lat="43.93659" lon="6.21023">
        <ele>810.62</ele>
        <time>2022-06-20T07:45:20Z</time>
      </trkpt>
      <trkpt lat="43.93652" lon="6.21014">
        <ele>810.4</ele>
        <time>2022-06-20T07:45:33Z</time>
      </trkpt>
      <trkpt lat="43.93646" lon="6.21">
        <ele>810.72</ele>
        <time>2022-06-20T07:45:53Z</time>
      </trkpt>
      <trkpt lat="43.93649" lon="6.20994">
        <ele>810.97</ele>
        <time>2022-06-20T07:46:14Z</time>
      </trkpt>
      <trkpt lat="43.93651" lon="6.20988">
        <ele>810.99</ele>
        <time>2022-06-20T07:46:33Z</time>
      </trkpt>
      <trkpt lat="43.93666" lon="6.20977">
        <ele>812.01</ele>
        <time>2022-06-20T07:46:50Z</time>
      </trkpt>
      <trkpt lat="43.93676" lon="6.20975">
        <ele>811.27</ele>
        <time>2022-06-20T07:47:07Z</time>
      </trkpt>
      <trkpt lat="43.93682" lon="6.20976">
        <ele>808.62</ele>
        <time>2022-06-20T07:47:24Z</time>
      </trkpt>
      <trkpt lat="43.93686" lon="6.20988">
        <ele>808.8</ele>
        <time>2022-06-20T07:47:38Z</time>
      </trkpt>
      <trkpt lat="43.93679" lon="6.20991">
        <ele>809.85</ele>
        <time>2022-06-20T07:47:57Z</time>
      </trkpt>
      <trkpt lat="43.93678" lon="6.20994">
        <ele>810.24</ele>
        <time>2022-06-20T07:48:19Z</time>
      </trkpt>
      <trkpt lat="43.93689" lon="6.20997">
        <ele>810.21</ele>
        <time>2022-06-20T07:48:34Z</time>
      </trkpt>
      <trkpt lat="43.93689" lon="6.20998">
        <ele>810.34</ele>
        <time>2022-06-20T07:49:04Z</time>
      </trkpt>
      <trkpt lat="43.93685" lon="6.21004">
        <ele>810.44</ele>
        <time>2022-06-20T07:49:27Z</time>
      </trkpt>
      <trkpt lat="43.93687" lon="6.20996">
        <ele>809.8</ele>
        <time>2022-06-20T07:49:46Z</time>
      </trkpt>
      <trkpt lat="43.93691" lon="6.20996">
        <ele>809.7</ele>
        <time>2022-06-20T07:50:06Z</time>
      </trkpt>
      <trkpt lat="43.93698" lon="6.21002">
        <ele>809.83</ele>
        <time>2022-06-20T07:50:22Z</time>
      </trkpt>
      <trkpt lat="43.93692" lon="6.21027">
        <ele>810.66</ele>
        <time>2022-06-20T07:50:38Z</time>
      </trkpt>
      <trkpt lat="43.93685" lon="6.21029">
        <ele>811.29</ele>
        <time>2022-06-20T07:50:59Z</time>
      </trkpt>
      <trkpt lat="43.9368" lon="6.21027">
        <ele>811.62</ele>
        <time>2022-06-20T07:51:28Z</time>
      </trkpt>
      <trkpt lat="43.93685" lon="6.21032">
        <ele>811.69</ele>
        <time>2022-06-20T07:51:48Z</time>
      </trkpt>
      <trkpt lat="43.9369" lon="6.21042">
        <ele>812.2</ele>
        <time>2022-06-20T07:52:06Z</time>
      </trkpt>
      <trkpt lat="43.93679" lon="6.21044">
        <ele>812.78</ele>
        <time>2022-06-20T07:52:19Z</time>
      </trkpt>
      <trkpt lat="43.9367" lon="6.21039">
        <ele>812.4</ele>
        <time>2022-06-20T07:52:33Z</time>
      </trkpt>
      <trkpt lat="43.93662" lon="6.21036">
        <ele>811.41</ele>
        <time>2022-06-20T07:52:57Z</time>
      </trkpt>
      <trkpt lat="43.93655" lon="6.21028">
        <ele>811.35</ele>
        <time>2022-06-20T07:53:21Z</time>
      </trkpt>
      <trkpt lat="43.93654" lon="6.21029">
        <ele>811.31</ele>
        <time>2022-06-20T07:53:44Z</time>
      </trkpt>
      <trkpt lat="43.9366" lon="6.21038">
        <ele>811.29</ele>
        <time>2022-06-20T07:53:56Z</time>
      </trkpt>
      <trkpt lat="43.93661" lon="6.21043">
        <ele>811.29</ele>
        <time>2022-06-20T07:54:20Z</time>
      </trkpt>
      <trkpt lat="43.93662" lon="6.21044">
        <ele>811.3</ele>
        <time>2022-06-20T07:54:46Z</time>
      </trkpt>
      <trkpt lat="43.93659" lon="6.21045">
        <ele>811.23</ele>
        <time>2022-06-20T07:55:14Z</time>
      </trkpt>
      <trkpt lat="43.93663" lon="6.21045">
        <ele>811.21</ele>
        <time>2022-06-20T07:55:31Z</time>
      </trkpt>
      <trkpt lat="43.93673" lon="6.21052">
        <ele>811.49</ele>
        <time>2022-06-20T07:55:47Z</time>
      </trkpt>
      <trkpt lat="43.93682" lon="6.21058">
        <ele>812.12</ele>
        <time>2022-06-20T07:55:58Z</time>
      </trkpt>
      <trkpt lat="43.93691" lon="6.2107">
        <ele>813.2</ele>
        <time>2022-06-20T07:56:10Z</time>
      </trkpt>
      <trkpt lat="43.93685" lon="6.21081">
        <ele>815.08</ele>
        <time>2022-06-20T07:56:25Z</time>
      </trkpt>
      <trkpt lat="43.9368" lon="6.21093">
        <ele>816.85</ele>
        <time>2022-06-20T07:56:41Z</time>
      </trkpt>
      <trkpt lat="43.93675" lon="6.21103">
        <ele>818.4</ele>
        <time>2022-06-20T07:56:54Z</time>
      </trkpt>
      <trkpt lat="43.93668" lon="6.21112">
        <ele>819.58</ele>
        <time>2022-06-20T07:57:06Z</time>
      </trkpt>
      <trkpt lat="43.93661" lon="6.21122">
        <ele>820.24</ele>
        <time>2022-06-20T07:57:18Z</time>
      </trkpt>
      <trkpt lat="43.93652" lon="6.21131">
        <ele>821.03</ele>
        <time>2022-06-20T07:57:34Z</time>
      </trkpt>
      <trkpt lat="43.93641" lon="6.21141">
        <ele>821.63</ele>
        <time>2022-06-20T07:57:45Z</time>
      </trkpt>
      <trkpt lat="43.93634" lon="6.21155">
        <ele>822.86</ele>
        <time>2022-06-20T07:57:59Z</time>
      </trkpt>
      <trkpt lat="43.93628" lon="6.21164">
        <ele>823.86</ele>
        <time>2022-06-20T07:58:10Z</time>
      </trkpt>
      <trkpt lat="43.93619" lon="6.21177">
        <ele>824.44</ele>
        <time>2022-06-20T07:58:22Z</time>
      </trkpt>
      <trkpt lat="43.93614" lon="6.21188">
        <ele>825.65</ele>
        <time>2022-06-20T07:58:34Z</time>
      </trkpt>
      <trkpt lat="43.93611" lon="6.212">
        <ele>827.11</ele>
        <time>2022-06-20T07:58:47Z</time>
      </trkpt>
      <trkpt lat="43.93605" lon="6.21211">
        <ele>828.75</ele>
        <time>2022-06-20T07:59:02Z</time>
      </trkpt>
      <trkpt lat="43.93594" lon="6.21223">
        <ele>830.24</ele>
        <time>2022-06-20T07:59:17Z</time>
      </trkpt>
      <trkpt lat="43.93583" lon="6.21227">
        <ele>831.44</ele>
        <time>2022-06-20T07:59:28Z</time>
      </trkpt>
      <trkpt lat="43.93574" lon="6.21232">
        <ele>832.95</ele>
        <time>2022-06-20T07:59:42Z</time>
      </trkpt>
      <trkpt lat="43.93559" lon="6.21239">
        <ele>835.43</ele>
        <time>2022-06-20T07:59:57Z</time>
      </trkpt>
      <trkpt lat="43.93547" lon="6.21237">
        <ele>836.98</ele>
        <time>2022-06-20T08:00:09Z</time>
      </trkpt>
      <trkpt lat="43.93535" lon="6.21228">
        <ele>838.35</ele>
        <time>2022-06-20T08:00:23Z</time>
      </trkpt>
      <trkpt lat="43.93524" lon="6.21224">
        <ele>838.97</ele>
        <time>2022-06-20T08:00:33Z</time>
      </trkpt>
      <trkpt lat="43.93513" lon="6.21227">
        <ele>839.49</ele>
        <time>2022-06-20T08:00:44Z</time>
      </trkpt>
      <trkpt lat="43.93503" lon="6.21229">
        <ele>839.69</ele>
        <time>2022-06-20T08:00:56Z</time>
      </trkpt>
      <trkpt lat="43.93507" lon="6.2123">
        <ele>840.62</ele>
        <time>2022-06-20T08:01:19Z</time>
      </trkpt>
      <trkpt lat="43.93518" lon="6.21231">
        <ele>841.58</ele>
        <time>2022-06-20T08:01:36Z</time>
      </trkpt>
      <trkpt lat="43.93528" lon="6.21236">
        <ele>843.01</ele>
        <time>2022-06-20T08:01:49Z</time>
      </trkpt>
      <trkpt lat="43.9354" lon="6.21245">
        <ele>843.83</ele>
        <time>2022-06-20T08:02:02Z</time>
      </trkpt>
      <trkpt lat="43.93548" lon="6.21258">
        <ele>844.75</ele>
        <time>2022-06-20T08:02:15Z</time>
      </trkpt>
      <trkpt lat="43.93556" lon="6.21265">
        <ele>845.87</ele>
        <time>2022-06-20T08:02:29Z</time>
      </trkpt>
      <trkpt lat="43.93567" lon="6.21268">
        <ele>847.06</ele>
        <time>2022-06-20T08:02:41Z</time>
      </trkpt>
      <trkpt lat="43.93575" lon="6.21266">
        <ele>847.83</ele>
        <time>2022-06-20T08:02:51Z</time>
      </trkpt>
      <trkpt lat="43.93583" lon="6.21258">
        <ele>848.85</ele>
        <time>2022-06-20T08:03:01Z</time>
      </trkpt>
      <trkpt lat="43.93592" lon="6.21252">
        <ele>849.81</ele>
        <time>2022-06-20T08:03:11Z</time>
      </trkpt>
      <trkpt lat="43.93603" lon="6.21255">
        <ele>850.47</ele>
        <time>2022-06-20T08:03:21Z</time>
      </trkpt>
      <trkpt lat="43.93613" lon="6.21264">
        <ele>851.5</ele>
        <time>2022-06-20T08:03:33Z</time>
      </trkpt>
      <trkpt lat="43.93624" lon="6.21265">
        <ele>853</ele>
        <time>2022-06-20T08:03:45Z</time>
      </trkpt>
      <trkpt lat="43.93635" lon="6.21266">
        <ele>854.31</ele>
        <time>2022-06-20T08:03:56Z</time>
      </trkpt>
      <trkpt lat="43.93644" lon="6.21263">
        <ele>855.17</ele>
        <time>2022-06-20T08:04:08Z</time>
      </trkpt>
      <trkpt lat="43.93653" lon="6.21259">
        <ele>856.02</ele>
        <time>2022-06-20T08:04:18Z</time>
      </trkpt>
      <trkpt lat="43.93664" lon="6.21259">
        <ele>857.18</ele>
        <time>2022-06-20T08:04:30Z</time>
      </trkpt>
      <trkpt lat="43.93675" lon="6.21258">
        <ele>858.06</ele>
        <time>2022-06-20T08:04:41Z</time>
      </trkpt>
      <trkpt lat="43.93686" lon="6.21255">
        <ele>859.03</ele>
        <time>2022-06-20T08:04:52Z</time>
      </trkpt>
      <trkpt lat="43.93694" lon="6.21252">
        <ele>859.86</ele>
        <time>2022-06-20T08:05:03Z</time>
      </trkpt>
      <trkpt lat="43.93703" lon="6.21249">
        <ele>860.67</ele>
        <time>2022-06-20T08:05:14Z</time>
      </trkpt>
      <trkpt lat="43.93711" lon="6.21247">
        <ele>861.72</ele>
        <time>2022-06-20T08:05:26Z</time>
      </trkpt>
      <trkpt lat="43.93722" lon="6.21253">
        <ele>862.69</ele>
        <time>2022-06-20T08:05:38Z</time>
      </trkpt>
      <trkpt lat="43.93731" lon="6.21258">
        <ele>863.62</ele>
        <time>2022-06-20T08:05:49Z</time>
      </trkpt>
      <trkpt lat="43.93741" lon="6.21262">
        <ele>864.53</ele>
        <time>2022-06-20T08:06:02Z</time>
      </trkpt>
      <trkpt lat="43.93753" lon="6.21271">
        <ele>865.53</ele>
        <time>2022-06-20T08:06:15Z</time>
      </trkpt>
      <trkpt lat="43.93762" lon="6.21277">
        <ele>866.57</ele>
        <time>2022-06-20T08:06:27Z</time>
      </trkpt>
      <trkpt lat="43.93769" lon="6.21288">
        <ele>867.62</ele>
        <time>2022-06-20T08:06:39Z</time>
      </trkpt>
      <trkpt lat="43.93779" lon="6.21298">
        <ele>868.56</ele>
        <time>2022-06-20T08:06:52Z</time>
      </trkpt>
      <trkpt lat="43.93789" lon="6.2131">
        <ele>869.66</ele>
        <time>2022-06-20T08:07:05Z</time>
      </trkpt>
      <trkpt lat="43.93795" lon="6.21319">
        <ele>870.89</ele>
        <time>2022-06-20T08:07:18Z</time>
      </trkpt>
      <trkpt lat="43.93802" lon="6.21328">
        <ele>872</ele>
        <time>2022-06-20T08:07:32Z</time>
      </trkpt>
      <trkpt lat="43.93814" lon="6.21341">
        <ele>873.06</ele>
        <time>2022-06-20T08:07:45Z</time>
      </trkpt>
      <trkpt lat="43.93823" lon="6.21348">
        <ele>874.89</ele>
        <time>2022-06-20T08:08:04Z</time>
      </trkpt>
      <trkpt lat="43.93836" lon="6.21358">
        <ele>876.29</ele>
        <time>2022-06-20T08:08:18Z</time>
      </trkpt>
      <trkpt lat="43.93848" lon="6.2137">
        <ele>877.56</ele>
        <time>2022-06-20T08:08:32Z</time>
      </trkpt>
      <trkpt lat="43.93858" lon="6.21381">
        <ele>878.29</ele>
        <time>2022-06-20T08:08:45Z</time>
      </trkpt>
      <trkpt lat="43.93867" lon="6.21388">
        <ele>879.33</ele>
        <time>2022-06-20T08:08:57Z</time>
      </trkpt>
      <trkpt lat="43.93879" lon="6.21396">
        <ele>880.75</ele>
        <time>2022-06-20T08:09:10Z</time>
      </trkpt>
      <trkpt lat="43.9389" lon="6.21407">
        <ele>882.19</ele>
        <time>2022-06-20T08:09:27Z</time>
      </trkpt>
      <trkpt lat="43.93896" lon="6.21418">
        <ele>882.89</ele>
        <time>2022-06-20T08:09:39Z</time>
      </trkpt>
      <trkpt lat="43.93902" lon="6.2143">
        <ele>883.73</ele>
        <time>2022-06-20T08:09:50Z</time>
      </trkpt>
      <trkpt lat="43.93912" lon="6.21442">
        <ele>884.57</ele>
        <time>2022-06-20T08:10:02Z</time>
      </trkpt>
      <trkpt lat="43.9392" lon="6.21453">
        <ele>885.52</ele>
        <time>2022-06-20T08:10:15Z</time>
      </trkpt>
      <trkpt lat="43.93925" lon="6.21469">
        <ele>886.77</ele>
        <time>2022-06-20T08:10:29Z</time>
      </trkpt>
      <trkpt lat="43.93938" lon="6.21485">
        <ele>887.64</ele>
        <time>2022-06-20T08:10:42Z</time>
      </trkpt>
      <trkpt lat="43.93945" lon="6.21496">
        <ele>888.76</ele>
        <time>2022-06-20T08:10:53Z</time>
      </trkpt>
      <trkpt lat="43.9395" lon="6.2151">
        <ele>889.44</ele>
        <time>2022-06-20T08:11:05Z</time>
      </trkpt>
      <trkpt lat="43.93952" lon="6.21523">
        <ele>890.25</ele>
        <time>2022-06-20T08:11:16Z</time>
      </trkpt>
      <trkpt lat="43.93953" lon="6.21537">
        <ele>891.23</ele>
        <time>2022-06-20T08:11:27Z</time>
      </trkpt>
      <trkpt lat="43.93958" lon="6.21549">
        <ele>893</ele>
        <time>2022-06-20T08:11:39Z</time>
      </trkpt>
      <trkpt lat="43.93966" lon="6.21562">
        <ele>894.01</ele>
        <time>2022-06-20T08:11:51Z</time>
      </trkpt>
      <trkpt lat="43.93969" lon="6.21576">
        <ele>894.97</ele>
        <time>2022-06-20T08:12:03Z</time>
      </trkpt>
      <trkpt lat="43.93971" lon="6.2159">
        <ele>896.1</ele>
        <time>2022-06-20T08:12:16Z</time>
      </trkpt>
      <trkpt lat="43.93972" lon="6.21606">
        <ele>897.14</ele>
        <time>2022-06-20T08:12:28Z</time>
      </trkpt>
      <trkpt lat="43.93973" lon="6.2162">
        <ele>898.04</ele>
        <time>2022-06-20T08:12:40Z</time>
      </trkpt>
      <trkpt lat="43.93981" lon="6.21635">
        <ele>898.96</ele>
        <time>2022-06-20T08:12:51Z</time>
      </trkpt>
      <trkpt lat="43.93985" lon="6.21649">
        <ele>899.8</ele>
        <time>2022-06-20T08:13:03Z</time>
      </trkpt>
      <trkpt lat="43.93989" lon="6.21661">
        <ele>900.71</ele>
        <time>2022-06-20T08:13:15Z</time>
      </trkpt>
      <trkpt lat="43.9399" lon="6.21675">
        <ele>901.66</ele>
        <time>2022-06-20T08:13:27Z</time>
      </trkpt>
      <trkpt lat="43.93989" lon="6.21689">
        <ele>902.37</ele>
        <time>2022-06-20T08:13:39Z</time>
      </trkpt>
      <trkpt lat="43.93987" lon="6.21704">
        <ele>903.41</ele>
        <time>2022-06-20T08:13:52Z</time>
      </trkpt>
      <trkpt lat="43.93984" lon="6.21721">
        <ele>904.14</ele>
        <time>2022-06-20T08:14:06Z</time>
      </trkpt>
      <trkpt lat="43.93987" lon="6.21735">
        <ele>904.91</ele>
        <time>2022-06-20T08:14:18Z</time>
      </trkpt>
      <trkpt lat="43.9399" lon="6.2175">
        <ele>906.73</ele>
        <time>2022-06-20T08:14:30Z</time>
      </trkpt>
      <trkpt lat="43.93994" lon="6.21763">
        <ele>907.94</ele>
        <time>2022-06-20T08:14:43Z</time>
      </trkpt>
      <trkpt lat="43.94" lon="6.21775">
        <ele>908.8</ele>
        <time>2022-06-20T08:14:53Z</time>
      </trkpt>
      <trkpt lat="43.94" lon="6.21789">
        <ele>909.23</ele>
        <time>2022-06-20T08:15:05Z</time>
      </trkpt>
      <trkpt lat="43.94" lon="6.21804">
        <ele>910.14</ele>
        <time>2022-06-20T08:15:15Z</time>
      </trkpt>
      <trkpt lat="43.94001" lon="6.21817">
        <ele>911.19</ele>
        <time>2022-06-20T08:15:28Z</time>
      </trkpt>
      <trkpt lat="43.94006" lon="6.2183">
        <ele>911.85</ele>
        <time>2022-06-20T08:15:41Z</time>
      </trkpt>
      <trkpt lat="43.94004" lon="6.21846">
        <ele>913.08</ele>
        <time>2022-06-20T08:15:54Z</time>
      </trkpt>
      <trkpt lat="43.94003" lon="6.21857">
        <ele>913.74</ele>
        <time>2022-06-20T08:16:10Z</time>
      </trkpt>
      <trkpt lat="43.94006" lon="6.2187">
        <ele>914.45</ele>
        <time>2022-06-20T08:16:21Z</time>
      </trkpt>
      <trkpt lat="43.94009" lon="6.21877">
        <ele>915.84</ele>
        <time>2022-06-20T08:16:46Z</time>
      </trkpt>
      <trkpt lat="43.94009" lon="6.21891">
        <ele>915.88</ele>
        <time>2022-06-20T08:16:59Z</time>
      </trkpt>
      <trkpt lat="43.94004" lon="6.21894">
        <ele>916.89</ele>
        <time>2022-06-20T08:17:31Z</time>
      </trkpt>
      <trkpt lat="43.9401" lon="6.219">
        <ele>916.9</ele>
        <time>2022-06-20T08:18:03Z</time>
      </trkpt>
      <trkpt lat="43.94009" lon="6.21914">
        <ele>917.27</ele>
        <time>2022-06-20T08:18:15Z</time>
      </trkpt>
      <trkpt lat="43.94003" lon="6.21931">
        <ele>918.88</ele>
        <time>2022-06-20T08:18:27Z</time>
      </trkpt>
      <trkpt lat="43.94" lon="6.21947">
        <ele>919.9</ele>
        <time>2022-06-20T08:18:38Z</time>
      </trkpt>
      <trkpt lat="43.93999" lon="6.21961">
        <ele>921.09</ele>
        <time>2022-06-20T08:18:50Z</time>
      </trkpt>
      <trkpt lat="43.93997" lon="6.21976">
        <ele>922.2</ele>
        <time>2022-06-20T08:19:02Z</time>
      </trkpt>
      <trkpt lat="43.93999" lon="6.21993">
        <ele>923.45</ele>
        <time>2022-06-20T08:19:13Z</time>
      </trkpt>
      <trkpt lat="43.94001" lon="6.22006">
        <ele>924.41</ele>
        <time>2022-06-20T08:19:25Z</time>
      </trkpt>
      <trkpt lat="43.93997" lon="6.22021">
        <ele>925.57</ele>
        <time>2022-06-20T08:19:37Z</time>
      </trkpt>
      <trkpt lat="43.93994" lon="6.22036">
        <ele>926.96</ele>
        <time>2022-06-20T08:19:50Z</time>
      </trkpt>
      <trkpt lat="43.93991" lon="6.2205">
        <ele>928.31</ele>
        <time>2022-06-20T08:20:03Z</time>
      </trkpt>
      <trkpt lat="43.93988" lon="6.22064">
        <ele>929.77</ele>
        <time>2022-06-20T08:20:15Z</time>
      </trkpt>
      <trkpt lat="43.93992" lon="6.22074">
        <ele>931.42</ele>
        <time>2022-06-20T08:20:35Z</time>
      </trkpt>
      <trkpt lat="43.9399" lon="6.22076">
        <ele>931.64</ele>
        <time>2022-06-20T08:21:07Z</time>
      </trkpt>
      <trkpt lat="43.93995" lon="6.22088">
        <ele>931.75</ele>
        <time>2022-06-20T08:21:30Z</time>
      </trkpt>
      <trkpt lat="43.93996" lon="6.22102">
        <ele>932.53</ele>
        <time>2022-06-20T08:21:41Z</time>
      </trkpt>
      <trkpt lat="43.93994" lon="6.22117">
        <ele>933.41</ele>
        <time>2022-06-20T08:21:52Z</time>
      </trkpt>
      <trkpt lat="43.93995" lon="6.22131">
        <ele>934.39</ele>
        <time>2022-06-20T08:22:04Z</time>
      </trkpt>
      <trkpt lat="43.93999" lon="6.22144">
        <ele>935.68</ele>
        <time>2022-06-20T08:22:16Z</time>
      </trkpt>
      <trkpt lat="43.93999" lon="6.2216">
        <ele>936.7</ele>
        <time>2022-06-20T08:22:29Z</time>
      </trkpt>
      <trkpt lat="43.94" lon="6.22174">
        <ele>938.05</ele>
        <time>2022-06-20T08:22:40Z</time>
      </trkpt>
      <trkpt lat="43.94002" lon="6.22188">
        <ele>938.94</ele>
        <time>2022-06-20T08:22:51Z</time>
      </trkpt>
      <trkpt lat="43.94009" lon="6.22213">
        <ele>940.65</ele>
        <time>2022-06-20T08:23:07Z</time>
      </trkpt>
      <trkpt lat="43.94019" lon="6.2222">
        <ele>941.92</ele>
        <time>2022-06-20T08:23:19Z</time>
      </trkpt>
      <trkpt lat="43.94028" lon="6.22228">
        <ele>942.67</ele>
        <time>2022-06-20T08:23:34Z</time>
      </trkpt>
      <trkpt lat="43.94038" lon="6.22233">
        <ele>944.18</ele>
        <time>2022-06-20T08:24:25Z</time>
      </trkpt>
      <trkpt lat="43.94041" lon="6.22245">
        <ele>944.22</ele>
        <time>2022-06-20T08:24:42Z</time>
      </trkpt>
      <trkpt lat="43.94043" lon="6.22244">
        <ele>944.16</ele>
        <time>2022-06-20T08:25:06Z</time>
      </trkpt>
      <trkpt lat="43.94047" lon="6.22252">
        <ele>944.54</ele>
        <time>2022-06-20T08:25:27Z</time>
      </trkpt>
      <trkpt lat="43.94062" lon="6.22256">
        <ele>945.22</ele>
        <time>2022-06-20T08:25:40Z</time>
      </trkpt>
      <trkpt lat="43.94072" lon="6.22264">
        <ele>945.65</ele>
        <time>2022-06-20T08:25:51Z</time>
      </trkpt>
      <trkpt lat="43.94081" lon="6.22263">
        <ele>946.51</ele>
        <time>2022-06-20T08:26:02Z</time>
      </trkpt>
      <trkpt lat="43.94087" lon="6.2227">
        <ele>947.13</ele>
        <time>2022-06-20T08:26:15Z</time>
      </trkpt>
      <trkpt lat="43.9409" lon="6.22283">
        <ele>947.91</ele>
        <time>2022-06-20T08:26:27Z</time>
      </trkpt>
      <trkpt lat="43.94101" lon="6.22296">
        <ele>948.85</ele>
        <time>2022-06-20T08:26:41Z</time>
      </trkpt>
      <trkpt lat="43.94114" lon="6.22306">
        <ele>949.43</ele>
        <time>2022-06-20T08:26:55Z</time>
      </trkpt>
      <trkpt lat="43.94113" lon="6.22322">
        <ele>949.74</ele>
        <time>2022-06-20T08:27:06Z</time>
      </trkpt>
      <trkpt lat="43.94121" lon="6.22335">
        <ele>950.43</ele>
        <time>2022-06-20T08:27:19Z</time>
      </trkpt>
      <trkpt lat="43.94123" lon="6.22348">
        <ele>950.58</ele>
        <time>2022-06-20T08:27:29Z</time>
      </trkpt>
      <trkpt lat="43.94126" lon="6.2236">
        <ele>950.69</ele>
        <time>2022-06-20T08:27:40Z</time>
      </trkpt>
      <trkpt lat="43.94134" lon="6.22376">
        <ele>950.9</ele>
        <time>2022-06-20T08:27:51Z</time>
      </trkpt>
      <trkpt lat="43.94133" lon="6.22394">
        <ele>951.3</ele>
        <time>2022-06-20T08:28:04Z</time>
      </trkpt>
      <trkpt lat="43.94138" lon="6.22408">
        <ele>951.82</ele>
        <time>2022-06-20T08:28:14Z</time>
      </trkpt>
      <trkpt lat="43.94143" lon="6.22412">
        <ele>951.97</ele>
        <time>2022-06-20T08:29:40Z</time>
      </trkpt>
      <trkpt lat="43.94142" lon="6.22416">
        <ele>951.9</ele>
        <time>2022-06-20T08:30:56Z</time>
      </trkpt>
      <trkpt lat="43.94138" lon="6.22423">
        <ele>951.91</ele>
        <time>2022-06-20T08:31:16Z</time>
      </trkpt>
      <trkpt lat="43.9414" lon="6.22427">
        <ele>952.06</ele>
        <time>2022-06-20T08:31:44Z</time>
      </trkpt>
      <trkpt lat="43.94139" lon="6.22441">
        <ele>952.51</ele>
        <time>2022-06-20T08:31:59Z</time>
      </trkpt>
      <trkpt lat="43.94145" lon="6.22452">
        <ele>952.59</ele>
        <time>2022-06-20T08:32:11Z</time>
      </trkpt>
      <trkpt lat="43.9416" lon="6.22464">
        <ele>953.5</ele>
        <time>2022-06-20T08:32:23Z</time>
      </trkpt>
      <trkpt lat="43.94168" lon="6.22467">
        <ele>953.7</ele>
        <time>2022-06-20T08:32:33Z</time>
      </trkpt>
      <trkpt lat="43.94164" lon="6.22475">
        <ele>954.06</ele>
        <time>2022-06-20T08:32:48Z</time>
      </trkpt>
      <trkpt lat="43.94156" lon="6.22496">
        <ele>954.66</ele>
        <time>2022-06-20T08:33:00Z</time>
      </trkpt>
      <trkpt lat="43.94155" lon="6.22512">
        <ele>955.08</ele>
        <time>2022-06-20T08:33:11Z</time>
      </trkpt>
      <trkpt lat="43.94165" lon="6.22528">
        <ele>955.49</ele>
        <time>2022-06-20T08:33:25Z</time>
      </trkpt>
      <trkpt lat="43.94168" lon="6.22542">
        <ele>955.84</ele>
        <time>2022-06-20T08:33:35Z</time>
      </trkpt>
      <trkpt lat="43.9417" lon="6.22556">
        <ele>956.01</ele>
        <time>2022-06-20T08:33:45Z</time>
      </trkpt>
      <trkpt lat="43.94176" lon="6.22571">
        <ele>956.36</ele>
        <time>2022-06-20T08:33:56Z</time>
      </trkpt>
      <trkpt lat="43.94183" lon="6.22585">
        <ele>956.61</ele>
        <time>2022-06-20T08:34:07Z</time>
      </trkpt>
      <trkpt lat="43.94182" lon="6.22599">
        <ele>956.99</ele>
        <time>2022-06-20T08:34:19Z</time>
      </trkpt>
      <trkpt lat="43.942" lon="6.22612">
        <ele>957.68</ele>
        <time>2022-06-20T08:34:35Z</time>
      </trkpt>
      <trkpt lat="43.94212" lon="6.22619">
        <ele>958.16</ele>
        <time>2022-06-20T08:34:47Z</time>
      </trkpt>
      <trkpt lat="43.94224" lon="6.22629">
        <ele>958.64</ele>
        <time>2022-06-20T08:35:01Z</time>
      </trkpt>
      <trkpt lat="43.94228" lon="6.22636">
        <ele>958.76</ele>
        <time>2022-06-20T08:35:32Z</time>
      </trkpt>
      <trkpt lat="43.94237" lon="6.22643">
        <ele>958.92</ele>
        <time>2022-06-20T08:35:43Z</time>
      </trkpt>
      <trkpt lat="43.94248" lon="6.22655">
        <ele>959.72</ele>
        <time>2022-06-20T08:35:57Z</time>
      </trkpt>
      <trkpt lat="43.94256" lon="6.22663">
        <ele>960.29</ele>
        <time>2022-06-20T08:36:17Z</time>
      </trkpt>
      <trkpt lat="43.94264" lon="6.22663">
        <ele>960.33</ele>
        <time>2022-06-20T08:36:29Z</time>
      </trkpt>
      <trkpt lat="43.94273" lon="6.22662">
        <ele>960.5</ele>
        <time>2022-06-20T08:36:42Z</time>
      </trkpt>
      <trkpt lat="43.9428" lon="6.22673">
        <ele>960.5</ele>
        <time>2022-06-20T08:36:51Z</time>
      </trkpt>
      <trkpt lat="43.94288" lon="6.22685">
        <ele>960.54</ele>
        <time>2022-06-20T08:37:06Z</time>
      </trkpt>
      <trkpt lat="43.94302" lon="6.22695">
        <ele>959.87</ele>
        <time>2022-06-20T08:37:18Z</time>
      </trkpt>
      <trkpt lat="43.9431" lon="6.22699">
        <ele>959.44</ele>
        <time>2022-06-20T08:37:28Z</time>
      </trkpt>
      <trkpt lat="43.94315" lon="6.22711">
        <ele>959.25</ele>
        <time>2022-06-20T08:37:38Z</time>
      </trkpt>
      <trkpt lat="43.94322" lon="6.22725">
        <ele>959.07</ele>
        <time>2022-06-20T08:37:49Z</time>
      </trkpt>
      <trkpt lat="43.94332" lon="6.22736">
        <ele>958.66</ele>
        <time>2022-06-20T08:38:02Z</time>
      </trkpt>
      <trkpt lat="43.94338" lon="6.22738">
        <ele>957.98</ele>
        <time>2022-06-20T08:38:33Z</time>
      </trkpt>
      <trkpt lat="43.94347" lon="6.22738">
        <ele>958.26</ele>
        <time>2022-06-20T08:38:59Z</time>
      </trkpt>
      <trkpt lat="43.94357" lon="6.22745">
        <ele>958.75</ele>
        <time>2022-06-20T08:39:19Z</time>
      </trkpt>
      <trkpt lat="43.94364" lon="6.22756">
        <ele>958.6</ele>
        <time>2022-06-20T08:39:32Z</time>
      </trkpt>
      <trkpt lat="43.94374" lon="6.22759">
        <ele>958.75</ele>
        <time>2022-06-20T08:39:49Z</time>
      </trkpt>
      <trkpt lat="43.94383" lon="6.22765">
        <ele>959.03</ele>
        <time>2022-06-20T08:40:02Z</time>
      </trkpt>
      <trkpt lat="43.94392" lon="6.2277">
        <ele>959.12</ele>
        <time>2022-06-20T08:40:17Z</time>
      </trkpt>
      <trkpt lat="43.94401" lon="6.22768">
        <ele>959.26</ele>
        <time>2022-06-20T08:40:55Z</time>
      </trkpt>
      <trkpt lat="43.944" lon="6.22773">
        <ele>959.45</ele>
        <time>2022-06-20T08:41:52Z</time>
      </trkpt>
      <trkpt lat="43.94398" lon="6.22764">
        <ele>959.43</ele>
        <time>2022-06-20T08:42:24Z</time>
      </trkpt>
      <trkpt lat="43.94392" lon="6.22768">
        <ele>959.49</ele>
        <time>2022-06-20T08:43:26Z</time>
      </trkpt>
      <trkpt lat="43.94393" lon="6.22769">
        <ele>959.3</ele>
        <time>2022-06-20T08:45:32Z</time>
      </trkpt>
      <trkpt lat="43.94384" lon="6.22764">
        <ele>959.06</ele>
        <time>2022-06-20T08:47:26Z</time>
      </trkpt>
      <trkpt lat="43.94379" lon="6.22758">
        <ele>958.82</ele>
        <time>2022-06-20T08:48:42Z</time>
      </trkpt>
      <trkpt lat="43.94369" lon="6.22758">
        <ele>958.9</ele>
        <time>2022-06-20T08:48:57Z</time>
      </trkpt>
      <trkpt lat="43.9436" lon="6.22752">
        <ele>958.47</ele>
        <time>2022-06-20T08:49:11Z</time>
      </trkpt>
      <trkpt lat="43.94353" lon="6.22742">
        <ele>958.47</ele>
        <time>2022-06-20T08:49:24Z</time>
      </trkpt>
      <trkpt lat="43.94343" lon="6.22743">
        <ele>958.32</ele>
        <time>2022-06-20T08:49:41Z</time>
      </trkpt>
      <trkpt lat="43.94342" lon="6.22744">
        <ele>957.75</ele>
        <time>2022-06-20T08:50:18Z</time>
      </trkpt>
      <trkpt lat="43.94335" lon="6.22747">
        <ele>958.22</ele>
        <time>2022-06-20T08:50:52Z</time>
      </trkpt>
      <trkpt lat="43.94324" lon="6.22751">
        <ele>957.9</ele>
        <time>2022-06-20T08:51:03Z</time>
      </trkpt>
      <trkpt lat="43.94315" lon="6.22761">
        <ele>956.82</ele>
        <time>2022-06-20T08:51:13Z</time>
      </trkpt>
      <trkpt lat="43.94306" lon="6.22762">
        <ele>956.05</ele>
        <time>2022-06-20T08:51:22Z</time>
      </trkpt>
      <trkpt lat="43.94295" lon="6.22764">
        <ele>955.35</ele>
        <time>2022-06-20T08:51:31Z</time>
      </trkpt>
      <trkpt lat="43.94285" lon="6.22767">
        <ele>954.58</ele>
        <time>2022-06-20T08:51:39Z</time>
      </trkpt>
      <trkpt lat="43.94275" lon="6.22769">
        <ele>953.68</ele>
        <time>2022-06-20T08:51:49Z</time>
      </trkpt>
      <trkpt lat="43.94266" lon="6.2277">
        <ele>952.65</ele>
        <time>2022-06-20T08:51:57Z</time>
      </trkpt>
      <trkpt lat="43.94258" lon="6.22774">
        <ele>951.91</ele>
        <time>2022-06-20T08:52:07Z</time>
      </trkpt>
      <trkpt lat="43.94248" lon="6.22779">
        <ele>951.21</ele>
        <time>2022-06-20T08:52:16Z</time>
      </trkpt>
      <trkpt lat="43.94239" lon="6.22781">
        <ele>950.55</ele>
        <time>2022-06-20T08:52:26Z</time>
      </trkpt>
      <trkpt lat="43.94227" lon="6.22783">
        <ele>949.79</ele>
        <time>2022-06-20T08:52:35Z</time>
      </trkpt>
      <trkpt lat="43.94217" lon="6.2279">
        <ele>949.31</ele>
        <time>2022-06-20T08:52:43Z</time>
      </trkpt>
      <trkpt lat="43.94207" lon="6.22798">
        <ele>948.17</ele>
        <time>2022-06-20T08:52:52Z</time>
      </trkpt>
      <trkpt lat="43.94198" lon="6.22806">
        <ele>947.35</ele>
        <time>2022-06-20T08:53:01Z</time>
      </trkpt>
      <trkpt lat="43.94187" lon="6.22811">
        <ele>946.51</ele>
        <time>2022-06-20T08:53:10Z</time>
      </trkpt>
      <trkpt lat="43.94179" lon="6.22815">
        <ele>945.99</ele>
        <time>2022-06-20T08:53:19Z</time>
      </trkpt>
      <trkpt lat="43.9417" lon="6.22822">
        <ele>945.14</ele>
        <time>2022-06-20T08:53:28Z</time>
      </trkpt>
      <trkpt lat="43.94161" lon="6.2283">
        <ele>944.49</ele>
        <time>2022-06-20T08:53:37Z</time>
      </trkpt>
      <trkpt lat="43.94152" lon="6.22839">
        <ele>943.57</ele>
        <time>2022-06-20T08:53:46Z</time>
      </trkpt>
      <trkpt lat="43.94143" lon="6.22845">
        <ele>942.89</ele>
        <time>2022-06-20T08:53:55Z</time>
      </trkpt>
      <trkpt lat="43.94135" lon="6.22849">
        <ele>941.7</ele>
        <time>2022-06-20T08:54:03Z</time>
      </trkpt>
      <trkpt lat="43.94128" lon="6.22856">
        <ele>940.93</ele>
        <time>2022-06-20T08:54:12Z</time>
      </trkpt>
      <trkpt lat="43.94119" lon="6.22861">
        <ele>940.09</ele>
        <time>2022-06-20T08:54:20Z</time>
      </trkpt>
      <trkpt lat="43.9411" lon="6.22869">
        <ele>938.98</ele>
        <time>2022-06-20T08:54:29Z</time>
      </trkpt>
      <trkpt lat="43.94102" lon="6.22878">
        <ele>938.39</ele>
        <time>2022-06-20T08:54:38Z</time>
      </trkpt>
      <trkpt lat="43.94096" lon="6.22889">
        <ele>937.63</ele>
        <time>2022-06-20T08:54:47Z</time>
      </trkpt>
      <trkpt lat="43.94088" lon="6.22901">
        <ele>936.78</ele>
        <time>2022-06-20T08:54:56Z</time>
      </trkpt>
      <trkpt lat="43.94083" lon="6.22912">
        <ele>936.11</ele>
        <time>2022-06-20T08:55:05Z</time>
      </trkpt>
      <trkpt lat="43.94077" lon="6.22925">
        <ele>934.98</ele>
        <time>2022-06-20T08:55:14Z</time>
      </trkpt>
      <trkpt lat="43.94071" lon="6.22936">
        <ele>933.96</ele>
        <time>2022-06-20T08:55:23Z</time>
      </trkpt>
      <trkpt lat="43.94064" lon="6.22947">
        <ele>933.35</ele>
        <time>2022-06-20T08:55:31Z</time>
      </trkpt>
      <trkpt lat="43.94057" lon="6.22956">
        <ele>932.43</ele>
        <time>2022-06-20T08:55:39Z</time>
      </trkpt>
      <trkpt lat="43.94049" lon="6.22964">
        <ele>931.75</ele>
        <time>2022-06-20T08:55:47Z</time>
      </trkpt>
      <trkpt lat="43.94041" lon="6.22969">
        <ele>930.96</ele>
        <time>2022-06-20T08:55:56Z</time>
      </trkpt>
      <trkpt lat="43.94032" lon="6.22975">
        <ele>930.13</ele>
        <time>2022-06-20T08:56:05Z</time>
      </trkpt>
      <trkpt lat="43.94023" lon="6.22985">
        <ele>929.2</ele>
        <time>2022-06-20T08:56:14Z</time>
      </trkpt>
      <trkpt lat="43.94013" lon="6.22992">
        <ele>928.27</ele>
        <time>2022-06-20T08:56:23Z</time>
      </trkpt>
      <trkpt lat="43.94005" lon="6.22999">
        <ele>927.52</ele>
        <time>2022-06-20T08:56:32Z</time>
      </trkpt>
      <trkpt lat="43.93996" lon="6.23002">
        <ele>926.5</ele>
        <time>2022-06-20T08:56:41Z</time>
      </trkpt>
      <trkpt lat="43.93986" lon="6.23003">
        <ele>925.86</ele>
        <time>2022-06-20T08:56:50Z</time>
      </trkpt>
      <trkpt lat="43.93977" lon="6.23006">
        <ele>924.6</ele>
        <time>2022-06-20T08:57:02Z</time>
      </trkpt>
      <trkpt lat="43.93968" lon="6.23012">
        <ele>923.58</ele>
        <time>2022-06-20T08:57:12Z</time>
      </trkpt>
      <trkpt lat="43.93959" lon="6.23013">
        <ele>923.27</ele>
        <time>2022-06-20T08:57:21Z</time>
      </trkpt>
      <trkpt lat="43.9395" lon="6.2302">
        <ele>922.13</ele>
        <time>2022-06-20T08:57:34Z</time>
      </trkpt>
      <trkpt lat="43.93948" lon="6.23023">
        <ele>921.64</ele>
        <time>2022-06-20T08:58:33Z</time>
      </trkpt>
      <trkpt lat="43.93939" lon="6.23027">
        <ele>921.48</ele>
        <time>2022-06-20T08:58:42Z</time>
      </trkpt>
      <trkpt lat="43.93929" lon="6.23026">
        <ele>921.04</ele>
        <time>2022-06-20T08:58:51Z</time>
      </trkpt>
      <trkpt lat="43.93921" lon="6.23025">
        <ele>920.15</ele>
        <time>2022-06-20T08:59:00Z</time>
      </trkpt>
      <trkpt lat="43.93911" lon="6.23026">
        <ele>919.55</ele>
        <time>2022-06-20T08:59:08Z</time>
      </trkpt>
      <trkpt lat="43.939" lon="6.23026">
        <ele>918.83</ele>
        <time>2022-06-20T08:59:17Z</time>
      </trkpt>
      <trkpt lat="43.93891" lon="6.23027">
        <ele>918.05</ele>
        <time>2022-06-20T08:59:27Z</time>
      </trkpt>
      <trkpt lat="43.93881" lon="6.23029">
        <ele>916.42</ele>
        <time>2022-06-20T08:59:43Z</time>
      </trkpt>
      <trkpt lat="43.93872" lon="6.23042">
        <ele>915.49</ele>
        <time>2022-06-20T08:59:56Z</time>
      </trkpt>
      <trkpt lat="43.93877" lon="6.23046">
        <ele>914.54</ele>
        <time>2022-06-20T09:00:11Z</time>
      </trkpt>
      <trkpt lat="43.93875" lon="6.23046">
        <ele>914.24</ele>
        <time>2022-06-20T09:00:33Z</time>
      </trkpt>
      <trkpt lat="43.93885" lon="6.23062">
        <ele>913.95</ele>
        <time>2022-06-20T09:00:42Z</time>
      </trkpt>
      <trkpt lat="43.93894" lon="6.23074">
        <ele>913.24</ele>
        <time>2022-06-20T09:00:51Z</time>
      </trkpt>
      <trkpt lat="43.93901" lon="6.23086">
        <ele>912.43</ele>
        <time>2022-06-20T09:01:00Z</time>
      </trkpt>
      <trkpt lat="43.93901" lon="6.23101">
        <ele>911.94</ele>
        <time>2022-06-20T09:01:08Z</time>
      </trkpt>
      <trkpt lat="43.93899" lon="6.23116">
        <ele>910.76</ele>
        <time>2022-06-20T09:01:16Z</time>
      </trkpt>
      <trkpt lat="43.93902" lon="6.23128">
        <ele>909.95</ele>
        <time>2022-06-20T09:01:24Z</time>
      </trkpt>
      <trkpt lat="43.93891" lon="6.2314">
        <ele>908.93</ele>
        <time>2022-06-20T09:01:35Z</time>
      </trkpt>
      <trkpt lat="43.93874" lon="6.23147">
        <ele>907.68</ele>
        <time>2022-06-20T09:01:47Z</time>
      </trkpt>
      <trkpt lat="43.93863" lon="6.23157">
        <ele>906.47</ele>
        <time>2022-06-20T09:02:00Z</time>
      </trkpt>
      <trkpt lat="43.93853" lon="6.23168">
        <ele>905.05</ele>
        <time>2022-06-20T09:02:11Z</time>
      </trkpt>
      <trkpt lat="43.93848" lon="6.2318">
        <ele>903.69</ele>
        <time>2022-06-20T09:02:24Z</time>
      </trkpt>
      <trkpt lat="43.93846" lon="6.23184">
        <ele>903.33</ele>
        <time>2022-06-20T09:02:40Z</time>
      </trkpt>
      <trkpt lat="43.9385" lon="6.23183">
        <ele>903.16</ele>
        <time>2022-06-20T09:02:55Z</time>
      </trkpt>
      <trkpt lat="43.93855" lon="6.23177">
        <ele>903.35</ele>
        <time>2022-06-20T09:03:14Z</time>
      </trkpt>
      <trkpt lat="43.93845" lon="6.23184">
        <ele>903.49</ele>
        <time>2022-06-20T09:03:27Z</time>
      </trkpt>
      <trkpt lat="43.93838" lon="6.23191">
        <ele>903.19</ele>
        <time>2022-06-20T09:03:47Z</time>
      </trkpt>
      <trkpt lat="43.93837" lon="6.23199">
        <ele>902.3</ele>
        <time>2022-06-20T09:04:05Z</time>
      </trkpt>
      <trkpt lat="43.93827" lon="6.23204">
        <ele>901.13</ele>
        <time>2022-06-20T09:04:17Z</time>
      </trkpt>
      <trkpt lat="43.93816" lon="6.2321">
        <ele>899.87</ele>
        <time>2022-06-20T09:04:29Z</time>
      </trkpt>
      <trkpt lat="43.93799" lon="6.23218">
        <ele>898.38</ele>
        <time>2022-06-20T09:04:42Z</time>
      </trkpt>
      <trkpt lat="43.93783" lon="6.23228">
        <ele>896.79</ele>
        <time>2022-06-20T09:04:58Z</time>
      </trkpt>
      <trkpt lat="43.93771" lon="6.23237">
        <ele>895.32</ele>
        <time>2022-06-20T09:05:12Z</time>
      </trkpt>
      <trkpt lat="43.9376" lon="6.23255">
        <ele>893.84</ele>
        <time>2022-06-20T09:05:23Z</time>
      </trkpt>
      <trkpt lat="43.93761" lon="6.23271">
        <ele>892.73</ele>
        <time>2022-06-20T09:05:33Z</time>
      </trkpt>
      <trkpt lat="43.93765" lon="6.23285">
        <ele>891.76</ele>
        <time>2022-06-20T09:05:42Z</time>
      </trkpt>
      <trkpt lat="43.93766" lon="6.23299">
        <ele>890.71</ele>
        <time>2022-06-20T09:05:51Z</time>
      </trkpt>
      <trkpt lat="43.93773" lon="6.23314">
        <ele>889.56</ele>
        <time>2022-06-20T09:06:03Z</time>
      </trkpt>
      <trkpt lat="43.93779" lon="6.23326">
        <ele>888.81</ele>
        <time>2022-06-20T09:06:12Z</time>
      </trkpt>
      <trkpt lat="43.9379" lon="6.23338">
        <ele>888.03</ele>
        <time>2022-06-20T09:06:22Z</time>
      </trkpt>
      <trkpt lat="43.93794" lon="6.23353">
        <ele>887.01</ele>
        <time>2022-06-20T09:06:31Z</time>
      </trkpt>
      <trkpt lat="43.93798" lon="6.23371">
        <ele>886.21</ele>
        <time>2022-06-20T09:06:42Z</time>
      </trkpt>
      <trkpt lat="43.93803" lon="6.23386">
        <ele>885.16</ele>
        <time>2022-06-20T09:06:53Z</time>
      </trkpt>
      <trkpt lat="43.93809" lon="6.23412">
        <ele>883.72</ele>
        <time>2022-06-20T09:07:05Z</time>
      </trkpt>
      <trkpt lat="43.93811" lon="6.23431">
        <ele>883.01</ele>
        <time>2022-06-20T09:07:14Z</time>
      </trkpt>
      <trkpt lat="43.93817" lon="6.23447">
        <ele>881.88</ele>
        <time>2022-06-20T09:07:24Z</time>
      </trkpt>
      <trkpt lat="43.93816" lon="6.23468">
        <ele>881.15</ele>
        <time>2022-06-20T09:07:34Z</time>
      </trkpt>
      <trkpt lat="43.93813" lon="6.23482">
        <ele>880.16</ele>
        <time>2022-06-20T09:07:45Z</time>
      </trkpt>
      <trkpt lat="43.93811" lon="6.23501">
        <ele>879.32</ele>
        <time>2022-06-20T09:07:57Z</time>
      </trkpt>
      <trkpt lat="43.93812" lon="6.23516">
        <ele>878.56</ele>
        <time>2022-06-20T09:08:06Z</time>
      </trkpt>
      <trkpt lat="43.93809" lon="6.23535">
        <ele>878.02</ele>
        <time>2022-06-20T09:08:16Z</time>
      </trkpt>
      <trkpt lat="43.93808" lon="6.23545">
        <ele>876.92</ele>
        <time>2022-06-20T09:08:34Z</time>
      </trkpt>
      <trkpt lat="43.93811" lon="6.23543">
        <ele>876.68</ele>
        <time>2022-06-20T09:09:01Z</time>
      </trkpt>
      <trkpt lat="43.93809" lon="6.23546">
        <ele>876.73</ele>
        <time>2022-06-20T09:09:21Z</time>
      </trkpt>
      <trkpt lat="43.93804" lon="6.23563">
        <ele>876.5</ele>
        <time>2022-06-20T09:09:33Z</time>
      </trkpt>
      <trkpt lat="43.93801" lon="6.23573">
        <ele>875.77</ele>
        <time>2022-06-20T09:09:45Z</time>
      </trkpt>
      <trkpt lat="43.93797" lon="6.2359">
        <ele>874.75</ele>
        <time>2022-06-20T09:09:57Z</time>
      </trkpt>
      <trkpt lat="43.93797" lon="6.23604">
        <ele>874.36</ele>
        <time>2022-06-20T09:10:07Z</time>
      </trkpt>
      <trkpt lat="43.9379" lon="6.23617">
        <ele>873.41</ele>
        <time>2022-06-20T09:10:17Z</time>
      </trkpt>
      <trkpt lat="43.9378" lon="6.2363">
        <ele>872.97</ele>
        <time>2022-06-20T09:10:27Z</time>
      </trkpt>
      <trkpt lat="43.93772" lon="6.23644">
        <ele>872.41</ele>
        <time>2022-06-20T09:10:36Z</time>
      </trkpt>
      <trkpt lat="43.93757" lon="6.23655">
        <ele>871.8</ele>
        <time>2022-06-20T09:10:45Z</time>
      </trkpt>
      <trkpt lat="43.9375" lon="6.23662">
        <ele>870.88</ele>
        <time>2022-06-20T09:10:55Z</time>
      </trkpt>
      <trkpt lat="43.93743" lon="6.2367">
        <ele>869.8</ele>
        <time>2022-06-20T09:11:04Z</time>
      </trkpt>
      <trkpt lat="43.93737" lon="6.23678">
        <ele>868.83</ele>
        <time>2022-06-20T09:11:13Z</time>
      </trkpt>
      <trkpt lat="43.9373" lon="6.23685">
        <ele>867.95</ele>
        <time>2022-06-20T09:11:21Z</time>
      </trkpt>
      <trkpt lat="43.93723" lon="6.23695">
        <ele>866.66</ele>
        <time>2022-06-20T09:11:30Z</time>
      </trkpt>
      <trkpt lat="43.93717" lon="6.23702">
        <ele>865.13</ele>
        <time>2022-06-20T09:11:40Z</time>
      </trkpt>
      <trkpt lat="43.93713" lon="6.23716">
        <ele>864.25</ele>
        <time>2022-06-20T09:11:51Z</time>
      </trkpt>
      <trkpt lat="43.93709" lon="6.23728">
        <ele>863.63</ele>
        <time>2022-06-20T09:11:59Z</time>
      </trkpt>
      <trkpt lat="43.93709" lon="6.23741">
        <ele>862.57</ele>
        <time>2022-06-20T09:12:07Z</time>
      </trkpt>
      <trkpt lat="43.9371" lon="6.23757">
        <ele>861.35</ele>
        <time>2022-06-20T09:12:18Z</time>
      </trkpt>
      <trkpt lat="43.93709" lon="6.23778">
        <ele>859.94</ele>
        <time>2022-06-20T09:12:30Z</time>
      </trkpt>
      <trkpt lat="43.93709" lon="6.23794">
        <ele>858.89</ele>
        <time>2022-06-20T09:12:40Z</time>
      </trkpt>
      <trkpt lat="43.9371" lon="6.23806">
        <ele>857.9</ele>
        <time>2022-06-20T09:12:48Z</time>
      </trkpt>
      <trkpt lat="43.93713" lon="6.23819">
        <ele>857.2</ele>
        <time>2022-06-20T09:12:57Z</time>
      </trkpt>
      <trkpt lat="43.93713" lon="6.23832">
        <ele>856.06</ele>
        <time>2022-06-20T09:13:07Z</time>
      </trkpt>
      <trkpt lat="43.93713" lon="6.23847">
        <ele>855.1</ele>
        <time>2022-06-20T09:13:19Z</time>
      </trkpt>
      <trkpt lat="43.93719" lon="6.23853">
        <ele>854.09</ele>
        <time>2022-06-20T09:13:30Z</time>
      </trkpt>
      <trkpt lat="43.93721" lon="6.23866">
        <ele>853.08</ele>
        <time>2022-06-20T09:13:41Z</time>
      </trkpt>
      <trkpt lat="43.93726" lon="6.23881">
        <ele>852.08</ele>
        <time>2022-06-20T09:13:53Z</time>
      </trkpt>
      <trkpt lat="43.93725" lon="6.23892">
        <ele>859.6</ele>
        <time>2022-06-20T09:14:04Z</time>
      </trkpt>
      <trkpt lat="43.9373" lon="6.23915">
        <ele>857.6</ele>
        <time>2022-06-20T09:14:17Z</time>
      </trkpt>
      <trkpt lat="43.93725" lon="6.23931">
        <ele>849.54</ele>
        <time>2022-06-20T09:14:28Z</time>
      </trkpt>
      <trkpt lat="43.93709" lon="6.23943">
        <ele>848.78</ele>
        <time>2022-06-20T09:14:42Z</time>
      </trkpt>
      <trkpt lat="43.93706" lon="6.23962">
        <ele>847.21</ele>
        <time>2022-06-20T09:14:57Z</time>
      </trkpt>
      <trkpt lat="43.93699" lon="6.2399">
        <ele>846.76</ele>
        <time>2022-06-20T09:15:11Z</time>
      </trkpt>
      <trkpt lat="43.93697" lon="6.24004">
        <ele>845.81</ele>
        <time>2022-06-20T09:15:21Z</time>
      </trkpt>
      <trkpt lat="43.93697" lon="6.2402">
        <ele>844.84</ele>
        <time>2022-06-20T09:15:36Z</time>
      </trkpt>
      <trkpt lat="43.93691" lon="6.24034">
        <ele>844.3</ele>
        <time>2022-06-20T09:15:48Z</time>
      </trkpt>
      <trkpt lat="43.9369" lon="6.24046">
        <ele>843.79</ele>
        <time>2022-06-20T09:15:59Z</time>
      </trkpt>
      <trkpt lat="43.9368" lon="6.24065">
        <ele>843.14</ele>
        <time>2022-06-20T09:16:09Z</time>
      </trkpt>
      <trkpt lat="43.93679" lon="6.24081">
        <ele>842.77</ele>
        <time>2022-06-20T09:16:18Z</time>
      </trkpt>
      <trkpt lat="43.93664" lon="6.24095">
        <ele>842.35</ele>
        <time>2022-06-20T09:16:29Z</time>
      </trkpt>
      <trkpt lat="43.93646" lon="6.24109">
        <ele>841.6</ele>
        <time>2022-06-20T09:16:38Z</time>
      </trkpt>
      <trkpt lat="43.93634" lon="6.2412">
        <ele>841.32</ele>
        <time>2022-06-20T09:16:46Z</time>
      </trkpt>
      <trkpt lat="43.93623" lon="6.24132">
        <ele>840.64</ele>
        <time>2022-06-20T09:16:57Z</time>
      </trkpt>
      <trkpt lat="43.93611" lon="6.24145">
        <ele>840.25</ele>
        <time>2022-06-20T09:17:07Z</time>
      </trkpt>
      <trkpt lat="43.93599" lon="6.24164">
        <ele>839.65</ele>
        <time>2022-06-20T09:17:19Z</time>
      </trkpt>
      <trkpt lat="43.93589" lon="6.24178">
        <ele>838.97</ele>
        <time>2022-06-20T09:17:30Z</time>
      </trkpt>
      <trkpt lat="43.93585" lon="6.24188">
        <ele>838.38</ele>
        <time>2022-06-20T09:17:39Z</time>
      </trkpt>
      <trkpt lat="43.93575" lon="6.24201">
        <ele>837.98</ele>
        <time>2022-06-20T09:17:51Z</time>
      </trkpt>
      <trkpt lat="43.93564" lon="6.24214">
        <ele>837.78</ele>
        <time>2022-06-20T09:18:02Z</time>
      </trkpt>
      <trkpt lat="43.93554" lon="6.24223">
        <ele>836.59</ele>
        <time>2022-06-20T09:18:11Z</time>
      </trkpt>
      <trkpt lat="43.93543" lon="6.24216">
        <ele>836.13</ele>
        <time>2022-06-20T09:18:24Z</time>
      </trkpt>
      <trkpt lat="43.93533" lon="6.24214">
        <ele>835.07</ele>
        <time>2022-06-20T09:18:43Z</time>
      </trkpt>
      <trkpt lat="43.93521" lon="6.24214">
        <ele>834.71</ele>
        <time>2022-06-20T09:18:55Z</time>
      </trkpt>
      <trkpt lat="43.9351" lon="6.24202">
        <ele>833.66</ele>
        <time>2022-06-20T09:19:08Z</time>
      </trkpt>
      <trkpt lat="43.93499" lon="6.24199">
        <ele>832.4</ele>
        <time>2022-06-20T09:19:21Z</time>
      </trkpt>
      <trkpt lat="43.93483" lon="6.24188">
        <ele>831.09</ele>
        <time>2022-06-20T09:19:34Z</time>
      </trkpt>
      <trkpt lat="43.93471" lon="6.24184">
        <ele>830.17</ele>
        <time>2022-06-20T09:19:44Z</time>
      </trkpt>
      <trkpt lat="43.93465" lon="6.24192">
        <ele>829.31</ele>
        <time>2022-06-20T09:19:54Z</time>
      </trkpt>
      <trkpt lat="43.93453" lon="6.24198">
        <ele>828.92</ele>
        <time>2022-06-20T09:20:03Z</time>
      </trkpt>
      <trkpt lat="43.93439" lon="6.24202">
        <ele>827.82</ele>
        <time>2022-06-20T09:20:14Z</time>
      </trkpt>
      <trkpt lat="43.93431" lon="6.2421">
        <ele>827.38</ele>
        <time>2022-06-20T09:20:23Z</time>
      </trkpt>
      <trkpt lat="43.93423" lon="6.24218">
        <ele>826.47</ele>
        <time>2022-06-20T09:20:34Z</time>
      </trkpt>
      <trkpt lat="43.93413" lon="6.24222">
        <ele>825.26</ele>
        <time>2022-06-20T09:20:45Z</time>
      </trkpt>
      <trkpt lat="43.93402" lon="6.24228">
        <ele>824.52</ele>
        <time>2022-06-20T09:20:56Z</time>
      </trkpt>
      <trkpt lat="43.93383" lon="6.24235">
        <ele>823.42</ele>
        <time>2022-06-20T09:21:08Z</time>
      </trkpt>
      <trkpt lat="43.93369" lon="6.24234">
        <ele>821.94</ele>
        <time>2022-06-20T09:21:19Z</time>
      </trkpt>
      <trkpt lat="43.93357" lon="6.24231">
        <ele>820.83</ele>
        <time>2022-06-20T09:21:29Z</time>
      </trkpt>
      <trkpt lat="43.93344" lon="6.24233">
        <ele>819.62</ele>
        <time>2022-06-20T09:21:38Z</time>
      </trkpt>
      <trkpt lat="43.93332" lon="6.24235">
        <ele>818.48</ele>
        <time>2022-06-20T09:21:49Z</time>
      </trkpt>
      <trkpt lat="43.93322" lon="6.24243">
        <ele>817.06</ele>
        <time>2022-06-20T09:22:00Z</time>
      </trkpt>
      <trkpt lat="43.93313" lon="6.24247">
        <ele>816.07</ele>
        <time>2022-06-20T09:22:20Z</time>
      </trkpt>
      <trkpt lat="43.93313" lon="6.24237">
        <ele>815.21</ele>
        <time>2022-06-20T09:22:35Z</time>
      </trkpt>
      <trkpt lat="43.93311" lon="6.24229">
        <ele>815.16</ele>
        <time>2022-06-20T09:22:50Z</time>
      </trkpt>
      <trkpt lat="43.93307" lon="6.24233">
        <ele>814.44</ele>
        <time>2022-06-20T09:23:09Z</time>
      </trkpt>
      <trkpt lat="43.93314" lon="6.24241">
        <ele>813.25</ele>
        <time>2022-06-20T09:23:23Z</time>
      </trkpt>
      <trkpt lat="43.93305" lon="6.2424">
        <ele>812.98</ele>
        <time>2022-06-20T09:23:45Z</time>
      </trkpt>
      <trkpt lat="43.93298" lon="6.24236">
        <ele>813.53</ele>
        <time>2022-06-20T09:24:01Z</time>
      </trkpt>
      <trkpt lat="43.93293" lon="6.24223">
        <ele>813.23</ele>
        <time>2022-06-20T09:24:13Z</time>
      </trkpt>
      <trkpt lat="43.93296" lon="6.24209">
        <ele>814.13</ele>
        <time>2022-06-20T09:24:29Z</time>
      </trkpt>
      <trkpt lat="43.93312" lon="6.24214">
        <ele>813.94</ele>
        <time>2022-06-20T09:24:55Z</time>
      </trkpt>
      <trkpt lat="43.93301" lon="6.24218">
        <ele>814</ele>
        <time>2022-06-20T09:25:17Z</time>
      </trkpt>
      <trkpt lat="43.93305" lon="6.24225">
        <ele>814.01</ele>
        <time>2022-06-20T09:25:38Z</time>
      </trkpt>
      <trkpt lat="43.93298" lon="6.24223">
        <ele>812.99</ele>
        <time>2022-06-20T09:26:00Z</time>
      </trkpt>
      <trkpt lat="43.9329" lon="6.24216">
        <ele>812.91</ele>
        <time>2022-06-20T09:26:20Z</time>
      </trkpt>
      <trkpt lat="43.93291" lon="6.24223">
        <ele>813.17</ele>
        <time>2022-06-20T09:26:46Z</time>
      </trkpt>
      <trkpt lat="43.93285" lon="6.24216">
        <ele>812.88</ele>
        <time>2022-06-20T09:27:09Z</time>
      </trkpt>
      <trkpt lat="43.93276" lon="6.24215">
        <ele>812.08</ele>
        <time>2022-06-20T09:27:22Z</time>
      </trkpt>
      <trkpt lat="43.93268" lon="6.2421">
        <ele>822.3</ele>
        <time>2022-06-20T09:27:34Z</time>
      </trkpt>
      <trkpt lat="43.93257" lon="6.24205">
        <ele>822.9</ele>
        <time>2022-06-20T09:27:45Z</time>
      </trkpt>
      <trkpt lat="43.93247" lon="6.24201">
        <ele>823.3</ele>
        <time>2022-06-20T09:27:55Z</time>
      </trkpt>
      <trkpt lat="43.93241" lon="6.242">
        <ele>823.5</ele>
      </trkpt>
      <trkpt lat="43.93229" lon="6.24204">
        <ele>822.6</ele>
        <time>2022-06-20T09:28:05Z</time>
      </trkpt>
      <trkpt lat="43.93218" lon="6.24204">
        <ele>823.1</ele>
        <time>2022-06-20T09:28:14Z</time>
      </trkpt>
      <trkpt lat="43.93211" lon="6.24216">
        <ele>821.3</ele>
        <time>2022-06-20T09:28:24Z</time>
      </trkpt>
      <trkpt lat="43.93209" lon="6.24219">
        <ele>821</ele>
        <time>2022-06-20T09:28:36Z</time>
      </trkpt>
      <trkpt lat="43.93212" lon="6.24224">
        <ele>804.02</ele>
        <time>2022-06-20T09:29:27Z</time>
      </trkpt>
      <trkpt lat="43.93214" lon="6.24227">
        <ele>819.9</ele>
      </trkpt>
      <trkpt lat="43.93216" lon="6.24229">
        <ele>819.6</ele>
        <time>2022-06-20T09:29:41Z</time>
      </trkpt>
      <trkpt lat="43.93234" lon="6.24249">
        <ele>807.33</ele>
        <time>2022-06-20T09:30:06Z</time>
      </trkpt>
      <trkpt lat="43.93233" lon="6.24255">
        <ele>807.78</ele>
        <time>2022-06-20T09:30:24Z</time>
      </trkpt>
      <trkpt lat="43.93231" lon="6.24261">
        <ele>807.73</ele>
        <time>2022-06-20T09:30:46Z</time>
      </trkpt>
      <trkpt lat="43.93227" lon="6.24255">
        <ele>819.1</ele>
        <time>2022-06-20T09:31:07Z</time>
      </trkpt>
      <trkpt lat="43.9322" lon="6.24256">
        <ele>808.55</ele>
        <time>2022-06-20T09:31:26Z</time>
      </trkpt>
      <trkpt lat="43.93233" lon="6.24256">
        <ele>807.83</ele>
        <time>2022-06-20T09:31:51Z</time>
      </trkpt>
      <trkpt lat="43.93233" lon="6.24249">
        <ele>807.86</ele>
        <time>2022-06-20T09:32:23Z</time>
      </trkpt>
      <trkpt lat="43.93228" lon="6.24241">
        <ele>817.8</ele>
        <time>2022-06-20T09:32:37Z</time>
      </trkpt>
      <trkpt lat="43.93218" lon="6.24232">
        <ele>819.4</ele>
        <time>2022-06-20T09:32:53Z</time>
      </trkpt>
      <trkpt lat="43.93216" lon="6.24229">
        <ele>805.08</ele>
        <time>2022-06-20T09:33:11Z</time>
      </trkpt>
      <trkpt lat="43.93224" lon="6.24226">
        <ele>804.79</ele>
        <time>2022-06-20T09:33:26Z</time>
      </trkpt>
      <trkpt lat="43.93245" lon="6.24234">
        <ele>803.26</ele>
        <time>2022-06-20T09:33:43Z</time>
      </trkpt>
      <trkpt lat="43.93258" lon="6.24247">
        <ele>802.11</ele>
        <time>2022-06-20T09:33:58Z</time>
      </trkpt>
      <trkpt lat="43.93277" lon="6.24276">
        <ele>800.7</ele>
        <time>2022-06-20T09:34:21Z</time>
      </trkpt>
      <trkpt lat="43.93279" lon="6.24294">
        <ele>798.39</ele>
        <time>2022-06-20T09:34:41Z</time>
      </trkpt>
      <trkpt lat="43.93298" lon="6.24312">
        <ele>796.87</ele>
        <time>2022-06-20T09:34:58Z</time>
      </trkpt>
      <trkpt lat="43.93312" lon="6.24321">
        <ele>795.32</ele>
        <time>2022-06-20T09:35:14Z</time>
      </trkpt>
      <trkpt lat="43.93325" lon="6.24322">
        <ele>794.66</ele>
        <time>2022-06-20T09:35:23Z</time>
      </trkpt>
      <trkpt lat="43.9333" lon="6.2432">
        <ele>792.67</ele>
        <time>2022-06-20T09:35:34Z</time>
      </trkpt>
      <trkpt lat="43.93337" lon="6.24319">
        <ele>792.14</ele>
        <time>2022-06-20T09:35:41Z</time>
      </trkpt>
      <trkpt lat="43.9335" lon="6.24319">
        <ele>791.15</ele>
        <time>2022-06-20T09:35:52Z</time>
      </trkpt>
      <trkpt lat="43.93366" lon="6.24323">
        <ele>789.91</ele>
        <time>2022-06-20T09:36:05Z</time>
      </trkpt>
      <trkpt lat="43.93377" lon="6.24327">
        <ele>788.74</ele>
        <time>2022-06-20T09:36:17Z</time>
      </trkpt>
      <trkpt lat="43.93387" lon="6.24339">
        <ele>787.91</ele>
        <time>2022-06-20T09:36:26Z</time>
      </trkpt>
      <trkpt lat="43.93393" lon="6.24343">
        <ele>786.96</ele>
        <time>2022-06-20T09:36:34Z</time>
      </trkpt>
      <trkpt lat="43.93401" lon="6.24337">
        <ele>784.86</ele>
        <time>2022-06-20T09:36:56Z</time>
      </trkpt>
      <trkpt lat="43.93406" lon="6.24327">
        <ele>782.88</ele>
        <time>2022-06-20T09:37:08Z</time>
      </trkpt>
      <trkpt lat="43.93424" lon="6.2432">
        <ele>780.98</ele>
        <time>2022-06-20T09:37:25Z</time>
      </trkpt>
      <trkpt lat="43.93431" lon="6.24312">
        <ele>779.71</ele>
        <time>2022-06-20T09:37:35Z</time>
      </trkpt>
      <trkpt lat="43.93441" lon="6.24307">
        <ele>778.66</ele>
        <time>2022-06-20T09:37:45Z</time>
      </trkpt>
      <trkpt lat="43.93458" lon="6.24307">
        <ele>777.55</ele>
        <time>2022-06-20T09:37:54Z</time>
      </trkpt>
      <trkpt lat="43.93469" lon="6.24307">
        <ele>776.19</ele>
        <time>2022-06-20T09:38:03Z</time>
      </trkpt>
      <trkpt lat="43.93483" lon="6.24308">
        <ele>774.9</ele>
        <time>2022-06-20T09:38:15Z</time>
      </trkpt>
      <trkpt lat="43.93493" lon="6.24317">
        <ele>773.38</ele>
        <time>2022-06-20T09:38:26Z</time>
      </trkpt>
      <trkpt lat="43.93501" lon="6.2434">
        <ele>772.16</ele>
        <time>2022-06-20T09:38:37Z</time>
      </trkpt>
      <trkpt lat="43.935" lon="6.24358">
        <ele>770.39</ele>
        <time>2022-06-20T09:38:47Z</time>
      </trkpt>
      <trkpt lat="43.93486" lon="6.24374">
        <ele>769.05</ele>
        <time>2022-06-20T09:38:58Z</time>
      </trkpt>
      <trkpt lat="43.93468" lon="6.24391">
        <ele>767.67</ele>
        <time>2022-06-20T09:39:11Z</time>
      </trkpt>
      <trkpt lat="43.93459" lon="6.24406">
        <ele>765.65</ele>
        <time>2022-06-20T09:39:26Z</time>
      </trkpt>
      <trkpt lat="43.93453" lon="6.24415">
        <ele>764.35</ele>
        <time>2022-06-20T09:39:41Z</time>
      </trkpt>
      <trkpt lat="43.93434" lon="6.24419">
        <ele>763.14</ele>
        <time>2022-06-20T09:39:57Z</time>
      </trkpt>
      <trkpt lat="43.93414" lon="6.24439">
        <ele>760.53</ele>
        <time>2022-06-20T09:40:17Z</time>
      </trkpt>
      <trkpt lat="43.93399" lon="6.24451">
        <ele>758.41</ele>
        <time>2022-06-20T09:40:31Z</time>
      </trkpt>
      <trkpt lat="43.93383" lon="6.24473">
        <ele>755.47</ele>
        <time>2022-06-20T09:40:52Z</time>
      </trkpt>
      <trkpt lat="43.93379" lon="6.24496">
        <ele>752.43</ele>
        <time>2022-06-20T09:41:10Z</time>
      </trkpt>
      <trkpt lat="43.9337" lon="6.24521">
        <ele>750.31</ele>
        <time>2022-06-20T09:41:24Z</time>
      </trkpt>
      <trkpt lat="43.9336" lon="6.24531">
        <ele>748.14</ele>
        <time>2022-06-20T09:41:40Z</time>
      </trkpt>
      <trkpt lat="43.93362" lon="6.2452">
        <ele>747.59</ele>
        <time>2022-06-20T09:42:22Z</time>
      </trkpt>
      <trkpt lat="43.9336" lon="6.24522">
        <ele>746.33</ele>
        <time>2022-06-20T10:26:19Z</time>
      </trkpt>
      <trkpt lat="43.93361" lon="6.24521">
        <ele>746.24</ele>
        <time>2022-06-20T10:26:40Z</time>
      </trkpt>
      <trkpt lat="43.93358" lon="6.24521">
        <ele>746.28</ele>
        <time>2022-06-20T10:27:05Z</time>
      </trkpt>
      <trkpt lat="43.93361" lon="6.24528">
        <ele>746.2</ele>
        <time>2022-06-20T10:27:29Z</time>
      </trkpt>
      <trkpt lat="43.93356" lon="6.24525">
        <ele>746.4</ele>
        <time>2022-06-20T10:27:51Z</time>
      </trkpt>
      <trkpt lat="43.93359" lon="6.24528">
        <ele>746.16</ele>
        <time>2022-06-20T10:28:13Z</time>
      </trkpt>
      <trkpt lat="43.93356" lon="6.24544">
        <ele>747.85</ele>
        <time>2022-06-20T10:40:56Z</time>
      </trkpt>
      <trkpt lat="43.93368" lon="6.24575">
        <ele>751.6</ele>
        <time>2022-06-20T11:02:07Z</time>
      </trkpt>
      <trkpt lat="43.93366" lon="6.24581">
        <ele>751.3</ele>
        <time>2022-06-20T11:02:26Z</time>
      </trkpt>
      <trkpt lat="43.93364" lon="6.24591">
        <ele>752.5</ele>
        <time>2022-06-20T11:02:40Z</time>
      </trkpt>
      <trkpt lat="43.93368" lon="6.24601">
        <ele>754.8</ele>
      </trkpt>
      <trkpt lat="43.93374" lon="6.24607">
        <ele>756.6</ele>
      </trkpt>
      <trkpt lat="43.93378" lon="6.24599">
        <ele>755.2</ele>
      </trkpt>
      <trkpt lat="43.93383" lon="6.24593">
        <ele>754.1</ele>
        <time>2022-06-20T11:04:57Z</time>
      </trkpt>
      <trkpt lat="43.9339" lon="6.24575">
        <ele>751.8</ele>
        <time>2022-06-20T11:05:25Z</time>
      </trkpt>
      <trkpt lat="43.93397" lon="6.24562">
        <ele>746.69</ele>
        <time>2022-06-20T11:05:37Z</time>
      </trkpt>
      <trkpt lat="43.93411" lon="6.24553">
        <ele>748.06</ele>
        <time>2022-06-20T11:05:49Z</time>
      </trkpt>
      <trkpt lat="43.93421" lon="6.24547">
        <ele>749.75</ele>
        <time>2022-06-20T11:06:02Z</time>
      </trkpt>
      <trkpt lat="43.93418" lon="6.24538">
        <ele>751.28</ele>
        <time>2022-06-20T11:06:17Z</time>
      </trkpt>
      <trkpt lat="43.9343" lon="6.2453">
        <ele>751.56</ele>
        <time>2022-06-20T11:06:35Z</time>
      </trkpt>
      <trkpt lat="43.93445" lon="6.24531">
        <ele>754.1</ele>
        <time>2022-06-20T11:06:51Z</time>
      </trkpt>
      <trkpt lat="43.93454" lon="6.24524">
        <ele>755.69</ele>
        <time>2022-06-20T11:07:05Z</time>
      </trkpt>
      <trkpt lat="43.9346" lon="6.24515">
        <ele>757.79</ele>
        <time>2022-06-20T11:07:20Z</time>
      </trkpt>
      <trkpt lat="43.93474" lon="6.24521">
        <ele>759.62</ele>
        <time>2022-06-20T11:07:32Z</time>
      </trkpt>
      <trkpt lat="43.93486" lon="6.24524">
        <ele>761.52</ele>
        <time>2022-06-20T11:07:46Z</time>
      </trkpt>
      <trkpt lat="43.93495" lon="6.24529">
        <ele>763.06</ele>
        <time>2022-06-20T11:08:01Z</time>
      </trkpt>
      <trkpt lat="43.93507" lon="6.2454">
        <ele>764.85</ele>
        <time>2022-06-20T11:08:16Z</time>
      </trkpt>
      <trkpt lat="43.93526" lon="6.24553">
        <ele>767.02</ele>
        <time>2022-06-20T11:08:33Z</time>
      </trkpt>
      <trkpt lat="43.93535" lon="6.24558">
        <ele>769.11</ele>
        <time>2022-06-20T11:08:48Z</time>
      </trkpt>
      <trkpt lat="43.93539" lon="6.24555">
        <ele>771.04</ele>
        <time>2022-06-20T11:09:04Z</time>
      </trkpt>
      <trkpt lat="43.93553" lon="6.2456">
        <ele>771.95</ele>
        <time>2022-06-20T11:09:19Z</time>
      </trkpt>
      <trkpt lat="43.93567" lon="6.24558">
        <ele>773.22</ele>
        <time>2022-06-20T11:09:33Z</time>
      </trkpt>
      <trkpt lat="43.93578" lon="6.24555">
        <ele>774.4</ele>
        <time>2022-06-20T11:09:47Z</time>
      </trkpt>
      <trkpt lat="43.93588" lon="6.24548">
        <ele>774.87</ele>
        <time>2022-06-20T11:10:00Z</time>
      </trkpt>
      <trkpt lat="43.93605" lon="6.24553">
        <ele>774.66</ele>
        <time>2022-06-20T11:10:15Z</time>
      </trkpt>
      <trkpt lat="43.93616" lon="6.2455">
        <ele>774.23</ele>
        <time>2022-06-20T11:10:31Z</time>
      </trkpt>
      <trkpt lat="43.93623" lon="6.24539">
        <ele>774.03</ele>
        <time>2022-06-20T11:10:42Z</time>
      </trkpt>
      <trkpt lat="43.93631" lon="6.24532">
        <ele>773.72</ele>
        <time>2022-06-20T11:10:53Z</time>
      </trkpt>
      <trkpt lat="43.9364" lon="6.24524">
        <ele>773.78</ele>
        <time>2022-06-20T11:11:04Z</time>
      </trkpt>
      <trkpt lat="43.93648" lon="6.24513">
        <ele>774.37</ele>
        <time>2022-06-20T11:11:15Z</time>
      </trkpt>
      <trkpt lat="43.93657" lon="6.24506">
        <ele>774.91</ele>
        <time>2022-06-20T11:11:26Z</time>
      </trkpt>
      <trkpt lat="43.93665" lon="6.24496">
        <ele>775.46</ele>
        <time>2022-06-20T11:11:37Z</time>
      </trkpt>
      <trkpt lat="43.93673" lon="6.24488">
        <ele>776.16</ele>
        <time>2022-06-20T11:11:47Z</time>
      </trkpt>
      <trkpt lat="43.93678" lon="6.24476">
        <ele>776.84</ele>
        <time>2022-06-20T11:11:58Z</time>
      </trkpt>
      <trkpt lat="43.93684" lon="6.24465">
        <ele>777.43</ele>
        <time>2022-06-20T11:12:11Z</time>
      </trkpt>
      <trkpt lat="43.93693" lon="6.24459">
        <ele>778.06</ele>
        <time>2022-06-20T11:12:22Z</time>
      </trkpt>
      <trkpt lat="43.937" lon="6.24449">
        <ele>778.17</ele>
        <time>2022-06-20T11:12:35Z</time>
      </trkpt>
      <trkpt lat="43.9371" lon="6.24442">
        <ele>778.51</ele>
        <time>2022-06-20T11:12:47Z</time>
      </trkpt>
      <trkpt lat="43.9372" lon="6.24434">
        <ele>779.19</ele>
        <time>2022-06-20T11:12:59Z</time>
      </trkpt>
      <trkpt lat="43.93732" lon="6.24432">
        <ele>779.78</ele>
        <time>2022-06-20T11:13:12Z</time>
      </trkpt>
      <trkpt lat="43.93743" lon="6.24441">
        <ele>780.14</ele>
        <time>2022-06-20T11:13:26Z</time>
      </trkpt>
      <trkpt lat="43.93754" lon="6.24441">
        <ele>780.23</ele>
        <time>2022-06-20T11:13:38Z</time>
      </trkpt>
      <trkpt lat="43.93763" lon="6.24432">
        <ele>781.27</ele>
        <time>2022-06-20T11:13:50Z</time>
      </trkpt>
      <trkpt lat="43.93775" lon="6.24424">
        <ele>781.69</ele>
        <time>2022-06-20T11:14:04Z</time>
      </trkpt>
      <trkpt lat="43.93781" lon="6.24409">
        <ele>782.49</ele>
        <time>2022-06-20T11:14:17Z</time>
      </trkpt>
      <trkpt lat="43.93792" lon="6.24409">
        <ele>782.73</ele>
        <time>2022-06-20T11:14:32Z</time>
      </trkpt>
      <trkpt lat="43.93806" lon="6.24406">
        <ele>783.18</ele>
        <time>2022-06-20T11:14:47Z</time>
      </trkpt>
      <trkpt lat="43.93825" lon="6.244">
        <ele>783.67</ele>
        <time>2022-06-20T11:15:00Z</time>
      </trkpt>
      <trkpt lat="43.93836" lon="6.24395">
        <ele>784.18</ele>
        <time>2022-06-20T11:15:12Z</time>
      </trkpt>
      <trkpt lat="43.9384" lon="6.24381">
        <ele>784.78</ele>
        <time>2022-06-20T11:15:25Z</time>
      </trkpt>
      <trkpt lat="43.93852" lon="6.24372">
        <ele>785.05</ele>
        <time>2022-06-20T11:15:37Z</time>
      </trkpt>
      <trkpt lat="43.93864" lon="6.2436">
        <ele>785.8</ele>
        <time>2022-06-20T11:15:50Z</time>
      </trkpt>
      <trkpt lat="43.93869" lon="6.24346">
        <ele>786.19</ele>
        <time>2022-06-20T11:16:02Z</time>
      </trkpt>
      <trkpt lat="43.93876" lon="6.24328">
        <ele>786.98</ele>
        <time>2022-06-20T11:16:14Z</time>
      </trkpt>
      <trkpt lat="43.93886" lon="6.24322">
        <ele>787.02</ele>
        <time>2022-06-20T11:16:27Z</time>
      </trkpt>
      <trkpt lat="43.93892" lon="6.24313">
        <ele>787.27</ele>
        <time>2022-06-20T11:16:46Z</time>
      </trkpt>
      <trkpt lat="43.93905" lon="6.24311">
        <ele>788.22</ele>
        <time>2022-06-20T11:16:59Z</time>
      </trkpt>
      <trkpt lat="43.93917" lon="6.24299">
        <ele>789.09</ele>
        <time>2022-06-20T11:17:13Z</time>
      </trkpt>
      <trkpt lat="43.93927" lon="6.24289">
        <ele>789.48</ele>
        <time>2022-06-20T11:17:27Z</time>
      </trkpt>
      <trkpt lat="43.93934" lon="6.24276">
        <ele>790.01</ele>
        <time>2022-06-20T11:17:38Z</time>
      </trkpt>
      <trkpt lat="43.93944" lon="6.24274">
        <ele>790.62</ele>
        <time>2022-06-20T11:17:53Z</time>
      </trkpt>
      <trkpt lat="43.9396" lon="6.24277">
        <ele>791.01</ele>
        <time>2022-06-20T11:18:07Z</time>
      </trkpt>
      <trkpt lat="43.93973" lon="6.24277">
        <ele>791.36</ele>
        <time>2022-06-20T11:18:22Z</time>
      </trkpt>
      <trkpt lat="43.93984" lon="6.24278">
        <ele>791.64</ele>
        <time>2022-06-20T11:18:36Z</time>
      </trkpt>
      <trkpt lat="43.93997" lon="6.24271">
        <ele>791.86</ele>
        <time>2022-06-20T11:18:47Z</time>
      </trkpt>
      <trkpt lat="43.94004" lon="6.24257">
        <ele>792.02</ele>
        <time>2022-06-20T11:18:59Z</time>
      </trkpt>
      <trkpt lat="43.9401" lon="6.24245">
        <ele>792.53</ele>
        <time>2022-06-20T11:19:08Z</time>
      </trkpt>
      <trkpt lat="43.94016" lon="6.24232">
        <ele>793.23</ele>
        <time>2022-06-20T11:19:17Z</time>
      </trkpt>
      <trkpt lat="43.94023" lon="6.24221">
        <ele>793.98</ele>
        <time>2022-06-20T11:19:27Z</time>
      </trkpt>
      <trkpt lat="43.94026" lon="6.24208">
        <ele>794.53</ele>
        <time>2022-06-20T11:19:35Z</time>
      </trkpt>
      <trkpt lat="43.94027" lon="6.24196">
        <ele>794.83</ele>
        <time>2022-06-20T11:19:43Z</time>
      </trkpt>
      <trkpt lat="43.94028" lon="6.24183">
        <ele>795.01</ele>
        <time>2022-06-20T11:19:51Z</time>
      </trkpt>
      <trkpt lat="43.94037" lon="6.24177">
        <ele>795.98</ele>
        <time>2022-06-20T11:20:01Z</time>
      </trkpt>
      <trkpt lat="43.94051" lon="6.24182">
        <ele>795.81</ele>
        <time>2022-06-20T11:20:13Z</time>
      </trkpt>
      <trkpt lat="43.94066" lon="6.24182">
        <ele>794.42</ele>
        <time>2022-06-20T11:20:23Z</time>
      </trkpt>
      <trkpt lat="43.94075" lon="6.24172">
        <ele>793.09</ele>
        <time>2022-06-20T11:20:34Z</time>
      </trkpt>
      <trkpt lat="43.94081" lon="6.24161">
        <ele>791.71</ele>
        <time>2022-06-20T11:20:44Z</time>
      </trkpt>
      <trkpt lat="43.9409" lon="6.2415">
        <ele>789.95</ele>
        <time>2022-06-20T11:20:54Z</time>
      </trkpt>
      <trkpt lat="43.94096" lon="6.2414">
        <ele>788.6</ele>
        <time>2022-06-20T11:21:05Z</time>
      </trkpt>
      <trkpt lat="43.94103" lon="6.24128">
        <ele>787.3</ele>
        <time>2022-06-20T11:21:14Z</time>
      </trkpt>
      <trkpt lat="43.94111" lon="6.24117">
        <ele>786.12</ele>
        <time>2022-06-20T11:21:23Z</time>
      </trkpt>
      <trkpt lat="43.94118" lon="6.24104">
        <ele>784.59</ele>
        <time>2022-06-20T11:21:35Z</time>
      </trkpt>
      <trkpt lat="43.94125" lon="6.24092">
        <ele>782.91</ele>
        <time>2022-06-20T11:21:45Z</time>
      </trkpt>
      <trkpt lat="43.94132" lon="6.24085">
        <ele>781.04</ele>
        <time>2022-06-20T11:22:01Z</time>
      </trkpt>
      <trkpt lat="43.94142" lon="6.24081">
        <ele>780.42</ele>
        <time>2022-06-20T11:22:17Z</time>
      </trkpt>
      <trkpt lat="43.94153" lon="6.2408">
        <ele>779.22</ele>
        <time>2022-06-20T11:22:46Z</time>
      </trkpt>
      <trkpt lat="43.94162" lon="6.24082">
        <ele>778.99</ele>
        <time>2022-06-20T11:23:05Z</time>
      </trkpt>
      <trkpt lat="43.9417" lon="6.2409">
        <ele>779.51</ele>
        <time>2022-06-20T11:23:18Z</time>
      </trkpt>
      <trkpt lat="43.94179" lon="6.24101">
        <ele>780.99</ele>
        <time>2022-06-20T11:23:32Z</time>
      </trkpt>
      <trkpt lat="43.94188" lon="6.24106">
        <ele>782.69</ele>
        <time>2022-06-20T11:23:44Z</time>
      </trkpt>
      <trkpt lat="43.94202" lon="6.24114">
        <ele>785</ele>
        <time>2022-06-20T11:23:58Z</time>
      </trkpt>
      <trkpt lat="43.94212" lon="6.2412">
        <ele>786.77</ele>
        <time>2022-06-20T11:24:12Z</time>
      </trkpt>
      <trkpt lat="43.94224" lon="6.24128">
        <ele>788.93</ele>
        <time>2022-06-20T11:24:29Z</time>
      </trkpt>
      <trkpt lat="43.94235" lon="6.24133">
        <ele>790.48</ele>
        <time>2022-06-20T11:24:42Z</time>
      </trkpt>
      <trkpt lat="43.94246" lon="6.24139">
        <ele>791.97</ele>
        <time>2022-06-20T11:24:55Z</time>
      </trkpt>
      <trkpt lat="43.94252" lon="6.2414">
        <ele>793.87</ele>
        <time>2022-06-20T11:25:15Z</time>
      </trkpt>
      <trkpt lat="43.94256" lon="6.24142">
        <ele>794.65</ele>
        <time>2022-06-20T11:25:38Z</time>
      </trkpt>
      <trkpt lat="43.94268" lon="6.24147">
        <ele>797.3</ele>
        <time>2022-06-20T11:26:00Z</time>
      </trkpt>
      <trkpt lat="43.94273" lon="6.24149">
        <ele>799.04</ele>
        <time>2022-06-20T11:26:26Z</time>
      </trkpt>
      <trkpt lat="43.9428" lon="6.24155">
        <ele>798.65</ele>
        <time>2022-06-20T11:26:49Z</time>
      </trkpt>
      <trkpt lat="43.94293" lon="6.24157">
        <ele>800.04</ele>
        <time>2022-06-20T11:27:03Z</time>
      </trkpt>
      <trkpt lat="43.94303" lon="6.24161">
        <ele>801.87</ele>
        <time>2022-06-20T11:27:16Z</time>
      </trkpt>
      <trkpt lat="43.94317" lon="6.24165">
        <ele>804.38</ele>
        <time>2022-06-20T11:27:31Z</time>
      </trkpt>
      <trkpt lat="43.94329" lon="6.24169">
        <ele>806.15</ele>
        <time>2022-06-20T11:27:43Z</time>
      </trkpt>
      <trkpt lat="43.94341" lon="6.24168">
        <ele>807.87</ele>
        <time>2022-06-20T11:27:57Z</time>
      </trkpt>
      <trkpt lat="43.94354" lon="6.24171">
        <ele>809.79</ele>
        <time>2022-06-20T11:28:12Z</time>
      </trkpt>
      <trkpt lat="43.94365" lon="6.24171">
        <ele>811.77</ele>
        <time>2022-06-20T11:28:27Z</time>
      </trkpt>
      <trkpt lat="43.94376" lon="6.24168">
        <ele>813.59</ele>
        <time>2022-06-20T11:28:43Z</time>
      </trkpt>
      <trkpt lat="43.94388" lon="6.24163">
        <ele>815.13</ele>
        <time>2022-06-20T11:28:54Z</time>
      </trkpt>
      <trkpt lat="43.94397" lon="6.2416">
        <ele>817.04</ele>
        <time>2022-06-20T11:29:07Z</time>
      </trkpt>
      <trkpt lat="43.94408" lon="6.24156">
        <ele>818.46</ele>
        <time>2022-06-20T11:29:20Z</time>
      </trkpt>
      <trkpt lat="43.94418" lon="6.24151">
        <ele>820.18</ele>
        <time>2022-06-20T11:29:37Z</time>
      </trkpt>
      <trkpt lat="43.94424" lon="6.24148">
        <ele>822.75</ele>
        <time>2022-06-20T11:29:57Z</time>
      </trkpt>
      <trkpt lat="43.94429" lon="6.24146">
        <ele>823.14</ele>
        <time>2022-06-20T11:30:31Z</time>
      </trkpt>
      <trkpt lat="43.9443" lon="6.24144">
        <ele>823.57</ele>
        <time>2022-06-20T11:34:58Z</time>
      </trkpt>
      <trkpt lat="43.9444" lon="6.24137">
        <ele>825.16</ele>
        <time>2022-06-20T11:35:10Z</time>
      </trkpt>
      <trkpt lat="43.94448" lon="6.24129">
        <ele>826.63</ele>
        <time>2022-06-20T11:35:23Z</time>
      </trkpt>
      <trkpt lat="43.94463" lon="6.24122">
        <ele>828.66</ele>
        <time>2022-06-20T11:35:40Z</time>
      </trkpt>
      <trkpt lat="43.94474" lon="6.24116">
        <ele>830.14</ele>
        <time>2022-06-20T11:35:53Z</time>
      </trkpt>
      <trkpt lat="43.94483" lon="6.24112">
        <ele>832.01</ele>
        <time>2022-06-20T11:36:09Z</time>
      </trkpt>
      <trkpt lat="43.94498" lon="6.24109">
        <ele>832.79</ele>
        <time>2022-06-20T11:36:20Z</time>
      </trkpt>
      <trkpt lat="43.94509" lon="6.24096">
        <ele>833.53</ele>
        <time>2022-06-20T11:36:35Z</time>
      </trkpt>
      <trkpt lat="43.94519" lon="6.24094">
        <ele>834.05</ele>
        <time>2022-06-20T11:36:49Z</time>
      </trkpt>
      <trkpt lat="43.94522" lon="6.24088">
        <ele>834.36</ele>
        <time>2022-06-20T11:37:17Z</time>
      </trkpt>
      <trkpt lat="43.94529" lon="6.24084">
        <ele>834.47</ele>
        <time>2022-06-20T11:37:35Z</time>
      </trkpt>
      <trkpt lat="43.94538" lon="6.24082">
        <ele>835.45</ele>
        <time>2022-06-20T11:37:57Z</time>
      </trkpt>
      <trkpt lat="43.94542" lon="6.24076">
        <ele>836.58</ele>
        <time>2022-06-20T11:38:16Z</time>
      </trkpt>
      <trkpt lat="43.94535" lon="6.24066">
        <ele>840.37</ele>
        <time>2022-06-20T11:38:34Z</time>
      </trkpt>
      <trkpt lat="43.94531" lon="6.24052">
        <ele>843.11</ele>
        <time>2022-06-20T11:38:53Z</time>
      </trkpt>
      <trkpt lat="43.94531" lon="6.24037">
        <ele>846.12</ele>
        <time>2022-06-20T11:39:11Z</time>
      </trkpt>
      <trkpt lat="43.94523" lon="6.24032">
        <ele>848.87</ele>
        <time>2022-06-20T11:39:30Z</time>
      </trkpt>
      <trkpt lat="43.94523" lon="6.24024">
        <ele>851.92</ele>
        <time>2022-06-20T11:39:48Z</time>
      </trkpt>
      <trkpt lat="43.94527" lon="6.24016">
        <ele>854.87</ele>
        <time>2022-06-20T11:40:06Z</time>
      </trkpt>
      <trkpt lat="43.94525" lon="6.24005">
        <ele>857</ele>
        <time>2022-06-20T11:40:26Z</time>
      </trkpt>
      <trkpt lat="43.94524" lon="6.23995">
        <ele>859.04</ele>
        <time>2022-06-20T11:41:01Z</time>
      </trkpt>
      <trkpt lat="43.9452" lon="6.23999">
        <ele>860.99</ele>
        <time>2022-06-20T11:41:15Z</time>
      </trkpt>
      <trkpt lat="43.94518" lon="6.23984">
        <ele>862.06</ele>
        <time>2022-06-20T11:41:34Z</time>
      </trkpt>
      <trkpt lat="43.94515" lon="6.23971">
        <ele>864.93</ele>
        <time>2022-06-20T11:41:53Z</time>
      </trkpt>
      <trkpt lat="43.94508" lon="6.23963">
        <ele>867.89</ele>
        <time>2022-06-20T11:42:29Z</time>
      </trkpt>
      <trkpt lat="43.94504" lon="6.23952">
        <ele>870.69</ele>
        <time>2022-06-20T11:42:48Z</time>
      </trkpt>
      <trkpt lat="43.94505" lon="6.2394">
        <ele>870.38</ele>
        <time>2022-06-20T11:43:20Z</time>
      </trkpt>
      <trkpt lat="43.94498" lon="6.23941">
        <ele>870.84</ele>
        <time>2022-06-20T11:43:59Z</time>
      </trkpt>
      <trkpt lat="43.94505" lon="6.23942">
        <ele>870.87</ele>
        <time>2022-06-20T11:44:28Z</time>
      </trkpt>
      <trkpt lat="43.94507" lon="6.23946">
        <ele>870.51</ele>
        <time>2022-06-20T11:45:02Z</time>
      </trkpt>
      <trkpt lat="43.94516" lon="6.23947">
        <ele>872.64</ele>
        <time>2022-06-20T11:45:23Z</time>
      </trkpt>
      <trkpt lat="43.94521" lon="6.23951">
        <ele>874.73</ele>
        <time>2022-06-20T11:45:51Z</time>
      </trkpt>
      <trkpt lat="43.94514" lon="6.23956">
        <ele>874.75</ele>
        <time>2022-06-20T11:46:17Z</time>
      </trkpt>
      <trkpt lat="43.94514" lon="6.23954">
        <ele>874.66</ele>
        <time>2022-06-20T11:46:48Z</time>
      </trkpt>
      <trkpt lat="43.94518" lon="6.23953">
        <ele>875</ele>
        <time>2022-06-20T11:47:23Z</time>
      </trkpt>
      <trkpt lat="43.94516" lon="6.2396">
        <ele>875.74</ele>
        <time>2022-06-20T11:47:52Z</time>
      </trkpt>
      <trkpt lat="43.9452" lon="6.2395">
        <ele>875.38</ele>
        <time>2022-06-20T11:48:14Z</time>
      </trkpt>
      <trkpt lat="43.94528" lon="6.23945">
        <ele>875.69</ele>
        <time>2022-06-20T11:48:30Z</time>
      </trkpt>
      <trkpt lat="43.94534" lon="6.23946">
        <ele>878.76</ele>
        <time>2022-06-20T11:49:03Z</time>
      </trkpt>
      <trkpt lat="43.94535" lon="6.23958">
        <ele>879.73</ele>
        <time>2022-06-20T11:49:31Z</time>
      </trkpt>
      <trkpt lat="43.94534" lon="6.23968">
        <ele>882.21</ele>
        <time>2022-06-20T11:49:59Z</time>
      </trkpt>
      <trkpt lat="43.94533" lon="6.23965">
        <ele>884.65</ele>
        <time>2022-06-20T11:50:48Z</time>
      </trkpt>
      <trkpt lat="43.94533" lon="6.23953">
        <ele>883.67</ele>
        <time>2022-06-20T11:51:19Z</time>
      </trkpt>
      <trkpt lat="43.94539" lon="6.23944">
        <ele>881.18</ele>
        <time>2022-06-20T11:51:58Z</time>
      </trkpt>
      <trkpt lat="43.94532" lon="6.2394">
        <ele>878.36</ele>
        <time>2022-06-20T11:53:09Z</time>
      </trkpt>
      <trkpt lat="43.94523" lon="6.23944">
        <ele>876.98</ele>
        <time>2022-06-20T11:53:27Z</time>
      </trkpt>
      <trkpt lat="43.94516" lon="6.23946">
        <ele>875.39</ele>
        <time>2022-06-20T11:53:46Z</time>
      </trkpt>
      <trkpt lat="43.94507" lon="6.23944">
        <ele>874.29</ele>
        <time>2022-06-20T11:54:09Z</time>
      </trkpt>
      <trkpt lat="43.94502" lon="6.23957">
        <ele>872.17</ele>
        <time>2022-06-20T11:54:26Z</time>
      </trkpt>
      <trkpt lat="43.94507" lon="6.23969">
        <ele>870.81</ele>
        <time>2022-06-20T11:54:41Z</time>
      </trkpt>
      <trkpt lat="43.94512" lon="6.23981">
        <ele>868.19</ele>
        <time>2022-06-20T11:54:57Z</time>
      </trkpt>
      <trkpt lat="43.94519" lon="6.23991">
        <ele>866.52</ele>
        <time>2022-06-20T11:55:14Z</time>
      </trkpt>
      <trkpt lat="43.9452" lon="6.24002">
        <ele>863.44</ele>
        <time>2022-06-20T11:55:32Z</time>
      </trkpt>
      <trkpt lat="43.94526" lon="6.2401">
        <ele>860.54</ele>
        <time>2022-06-20T11:55:51Z</time>
      </trkpt>
      <trkpt lat="43.94524" lon="6.24025">
        <ele>858.33</ele>
        <time>2022-06-20T11:56:08Z</time>
      </trkpt>
      <trkpt lat="43.94522" lon="6.24026">
        <ele>855.87</ele>
        <time>2022-06-20T11:56:26Z</time>
      </trkpt>
      <trkpt lat="43.94524" lon="6.24033">
        <ele>854.22</ele>
        <time>2022-06-20T11:56:40Z</time>
      </trkpt>
      <trkpt lat="43.94531" lon="6.24035">
        <ele>852.51</ele>
        <time>2022-06-20T11:56:55Z</time>
      </trkpt>
      <trkpt lat="43.94531" lon="6.24049">
        <ele>850.25</ele>
        <time>2022-06-20T11:57:08Z</time>
      </trkpt>
      <trkpt lat="43.94531" lon="6.24062">
        <ele>848.15</ele>
        <time>2022-06-20T11:57:21Z</time>
      </trkpt>
      <trkpt lat="43.94538" lon="6.24073">
        <ele>845.57</ele>
        <time>2022-06-20T11:57:36Z</time>
      </trkpt>
      <trkpt lat="43.94544" lon="6.24079">
        <ele>842.97</ele>
        <time>2022-06-20T11:57:49Z</time>
      </trkpt>
      <trkpt lat="43.94547" lon="6.24086">
        <ele>841.96</ele>
        <time>2022-06-20T11:58:05Z</time>
      </trkpt>
      <trkpt lat="43.94537" lon="6.2409">
        <ele>841.04</ele>
        <time>2022-06-20T11:58:23Z</time>
      </trkpt>
      <trkpt lat="43.94527" lon="6.24096">
        <ele>837.7</ele>
        <time>2022-06-20T11:58:37Z</time>
      </trkpt>
      <trkpt lat="43.9451" lon="6.24103">
        <ele>837.36</ele>
        <time>2022-06-20T12:20:19Z</time>
      </trkpt>
      <trkpt lat="43.94502" lon="6.24118">
        <ele>836.87</ele>
        <time>2022-06-20T12:20:31Z</time>
      </trkpt>
      <trkpt lat="43.94488" lon="6.24123">
        <ele>836.29</ele>
        <time>2022-06-20T12:20:43Z</time>
      </trkpt>
      <trkpt lat="43.94476" lon="6.24133">
        <ele>835.46</ele>
        <time>2022-06-20T12:20:55Z</time>
      </trkpt>
      <trkpt lat="43.94464" lon="6.24135">
        <ele>833.45</ele>
        <time>2022-06-20T12:21:08Z</time>
      </trkpt>
      <trkpt lat="43.94453" lon="6.24143">
        <ele>831.02</ele>
        <time>2022-06-20T12:21:20Z</time>
      </trkpt>
      <trkpt lat="43.94446" lon="6.24157">
        <ele>829.67</ele>
        <time>2022-06-20T12:21:31Z</time>
      </trkpt>
      <trkpt lat="43.94432" lon="6.24163">
        <ele>827.78</ele>
        <time>2022-06-20T12:21:43Z</time>
      </trkpt>
      <trkpt lat="43.9442" lon="6.24167">
        <ele>826.13</ele>
        <time>2022-06-20T12:21:53Z</time>
      </trkpt>
      <trkpt lat="43.94409" lon="6.24168">
        <ele>824.19</ele>
        <time>2022-06-20T12:22:04Z</time>
      </trkpt>
      <trkpt lat="43.94395" lon="6.24169">
        <ele>821.86</ele>
        <time>2022-06-20T12:22:14Z</time>
      </trkpt>
      <trkpt lat="43.94386" lon="6.24169">
        <ele>820.13</ele>
        <time>2022-06-20T12:22:24Z</time>
      </trkpt>
      <trkpt lat="43.94376" lon="6.24168">
        <ele>818.69</ele>
        <time>2022-06-20T12:22:34Z</time>
      </trkpt>
      <trkpt lat="43.94366" lon="6.24166">
        <ele>817.02</ele>
        <time>2022-06-20T12:22:44Z</time>
      </trkpt>
      <trkpt lat="43.94354" lon="6.24172">
        <ele>815.11</ele>
        <time>2022-06-20T12:22:54Z</time>
      </trkpt>
      <trkpt lat="43.94343" lon="6.24172">
        <ele>813.03</ele>
        <time>2022-06-20T12:23:06Z</time>
      </trkpt>
      <trkpt lat="43.94332" lon="6.24167">
        <ele>811.12</ele>
        <time>2022-06-20T12:23:17Z</time>
      </trkpt>
      <trkpt lat="43.94318" lon="6.24169">
        <ele>809.33</ele>
        <time>2022-06-20T12:23:29Z</time>
      </trkpt>
      <trkpt lat="43.94308" lon="6.24164">
        <ele>807.45</ele>
        <time>2022-06-20T12:23:40Z</time>
      </trkpt>
      <trkpt lat="43.94298" lon="6.2416">
        <ele>805.73</ele>
        <time>2022-06-20T12:23:51Z</time>
      </trkpt>
      <trkpt lat="43.94289" lon="6.24158">
        <ele>804.15</ele>
        <time>2022-06-20T12:24:01Z</time>
      </trkpt>
      <trkpt lat="43.94279" lon="6.24156">
        <ele>801.79</ele>
        <time>2022-06-20T12:24:13Z</time>
      </trkpt>
      <trkpt lat="43.94269" lon="6.24153">
        <ele>800.64</ele>
        <time>2022-06-20T12:24:23Z</time>
      </trkpt>
      <trkpt lat="43.9426" lon="6.24152">
        <ele>798.48</ele>
        <time>2022-06-20T12:24:36Z</time>
      </trkpt>
      <trkpt lat="43.94248" lon="6.24149">
        <ele>797.4</ele>
        <time>2022-06-20T12:24:47Z</time>
      </trkpt>
      <trkpt lat="43.94237" lon="6.24144">
        <ele>795.72</ele>
        <time>2022-06-20T12:24:58Z</time>
      </trkpt>
      <trkpt lat="43.94227" lon="6.24136">
        <ele>794.64</ele>
        <time>2022-06-20T12:25:08Z</time>
      </trkpt>
      <trkpt lat="43.94217" lon="6.2413">
        <ele>793.2</ele>
        <time>2022-06-20T12:25:19Z</time>
      </trkpt>
      <trkpt lat="43.94207" lon="6.24128">
        <ele>791.74</ele>
        <time>2022-06-20T12:25:30Z</time>
      </trkpt>
      <trkpt lat="43.94197" lon="6.24124">
        <ele>789.99</ele>
        <time>2022-06-20T12:25:43Z</time>
      </trkpt>
      <trkpt lat="43.94189" lon="6.24117">
        <ele>788.63</ele>
        <time>2022-06-20T12:25:53Z</time>
      </trkpt>
      <trkpt lat="43.94178" lon="6.24116">
        <ele>786.98</ele>
        <time>2022-06-20T12:26:04Z</time>
      </trkpt>
      <trkpt lat="43.94168" lon="6.24111">
        <ele>785.86</ele>
        <time>2022-06-20T12:26:14Z</time>
      </trkpt>
      <trkpt lat="43.94159" lon="6.24105">
        <ele>784.74</ele>
        <time>2022-06-20T12:26:24Z</time>
      </trkpt>
      <trkpt lat="43.94149" lon="6.24101">
        <ele>783.45</ele>
        <time>2022-06-20T12:26:34Z</time>
      </trkpt>
      <trkpt lat="43.94147" lon="6.24099">
        <ele>781.59</ele>
        <time>2022-06-20T12:26:52Z</time>
      </trkpt>
      <trkpt lat="43.94154" lon="6.24093">
        <ele>780.82</ele>
        <time>2022-06-20T12:27:05Z</time>
      </trkpt>
      <trkpt lat="43.94168" lon="6.24095">
        <ele>779.52</ele>
        <time>2022-06-20T12:27:18Z</time>
      </trkpt>
      <trkpt lat="43.94183" lon="6.24093">
        <ele>777.75</ele>
        <time>2022-06-20T12:27:32Z</time>
      </trkpt>
      <trkpt lat="43.942" lon="6.24091">
        <ele>776.37</ele>
        <time>2022-06-20T12:27:46Z</time>
      </trkpt>
      <trkpt lat="43.94211" lon="6.2409">
        <ele>775.2</ele>
        <time>2022-06-20T12:27:58Z</time>
      </trkpt>
      <trkpt lat="43.94225" lon="6.24085">
        <ele>773.36</ele>
        <time>2022-06-20T12:28:13Z</time>
      </trkpt>
      <trkpt lat="43.94237" lon="6.24078">
        <ele>771.2</ele>
        <time>2022-06-20T12:28:28Z</time>
      </trkpt>
      <trkpt lat="43.94255" lon="6.24072">
        <ele>769.8</ele>
        <time>2022-06-20T12:28:44Z</time>
      </trkpt>
      <trkpt lat="43.94272" lon="6.24067">
        <ele>768.43</ele>
        <time>2022-06-20T12:28:56Z</time>
      </trkpt>
      <trkpt lat="43.94285" lon="6.24057">
        <ele>766.94</ele>
        <time>2022-06-20T12:29:11Z</time>
      </trkpt>
      <trkpt lat="43.94301" lon="6.24045">
        <ele>765.11</ele>
        <time>2022-06-20T12:29:25Z</time>
      </trkpt>
      <trkpt lat="43.94305" lon="6.24028">
        <ele>763.85</ele>
        <time>2022-06-20T12:29:37Z</time>
      </trkpt>
      <trkpt lat="43.94313" lon="6.24013">
        <ele>762.18</ele>
        <time>2022-06-20T12:29:48Z</time>
      </trkpt>
      <trkpt lat="43.94317" lon="6.23999">
        <ele>760.49</ele>
        <time>2022-06-20T12:29:59Z</time>
      </trkpt>
      <trkpt lat="43.94319" lon="6.23986">
        <ele>759.37</ele>
        <time>2022-06-20T12:30:10Z</time>
      </trkpt>
      <trkpt lat="43.94329" lon="6.23976">
        <ele>757.62</ele>
        <time>2022-06-20T12:30:26Z</time>
      </trkpt>
      <trkpt lat="43.94339" lon="6.23964">
        <ele>756.45</ele>
        <time>2022-06-20T12:30:36Z</time>
      </trkpt>
      <trkpt lat="43.94346" lon="6.23957">
        <ele>755.27</ele>
        <time>2022-06-20T12:30:46Z</time>
      </trkpt>
      <trkpt lat="43.94346" lon="6.23943">
        <ele>753.37</ele>
        <time>2022-06-20T12:30:57Z</time>
      </trkpt>
      <trkpt lat="43.94348" lon="6.23931">
        <ele>752.1</ele>
        <time>2022-06-20T12:31:08Z</time>
      </trkpt>
      <trkpt lat="43.94344" lon="6.23924">
        <ele>750.24</ele>
        <time>2022-06-20T12:31:19Z</time>
      </trkpt>
      <trkpt lat="43.94336" lon="6.23921">
        <ele>748.54</ele>
        <time>2022-06-20T12:31:31Z</time>
      </trkpt>
      <trkpt lat="43.94331" lon="6.23908">
        <ele>748.45</ele>
        <time>2022-06-20T12:31:46Z</time>
      </trkpt>
      <trkpt lat="43.94328" lon="6.23889">
        <ele>748.66</ele>
        <time>2022-06-20T12:31:57Z</time>
      </trkpt>
      <trkpt lat="43.94326" lon="6.23875">
        <ele>749.11</ele>
        <time>2022-06-20T12:32:10Z</time>
      </trkpt>
      <trkpt lat="43.94321" lon="6.23864">
        <ele>750.01</ele>
        <time>2022-06-20T12:32:21Z</time>
      </trkpt>
      <trkpt lat="43.94327" lon="6.2385">
        <ele>749.91</ele>
        <time>2022-06-20T12:32:35Z</time>
      </trkpt>
      <trkpt lat="43.94334" lon="6.23839">
        <ele>748.14</ele>
        <time>2022-06-20T12:32:47Z</time>
      </trkpt>
      <trkpt lat="43.94339" lon="6.23839">
        <ele>745.57</ele>
        <time>2022-06-20T12:33:29Z</time>
      </trkpt>
      <trkpt lat="43.94342" lon="6.23854">
        <ele>744.25</ele>
        <time>2022-06-20T12:33:45Z</time>
      </trkpt>
      <trkpt lat="43.94364" lon="6.23845">
        <ele>742.49</ele>
        <time>2022-06-20T12:33:59Z</time>
      </trkpt>
      <trkpt lat="43.94369" lon="6.2383">
        <ele>741.96</ele>
        <time>2022-06-20T12:34:13Z</time>
      </trkpt>
      <trkpt lat="43.94374" lon="6.23821">
        <ele>741.81</ele>
        <time>2022-06-20T12:34:27Z</time>
      </trkpt>
      <trkpt lat="43.94384" lon="6.23817">
        <ele>741.52</ele>
        <time>2022-06-20T12:34:40Z</time>
      </trkpt>
      <trkpt lat="43.94395" lon="6.23817">
        <ele>741.35</ele>
        <time>2022-06-20T12:34:51Z</time>
      </trkpt>
      <trkpt lat="43.94407" lon="6.23808">
        <ele>740.94</ele>
        <time>2022-06-20T12:35:00Z</time>
      </trkpt>
      <trkpt lat="43.9441" lon="6.23794">
        <ele>740.53</ele>
        <time>2022-06-20T12:35:09Z</time>
      </trkpt>
      <trkpt lat="43.94418" lon="6.23793">
        <ele>739.96</ele>
        <time>2022-06-20T12:35:22Z</time>
      </trkpt>
      <trkpt lat="43.94427" lon="6.2379">
        <ele>738.49</ele>
        <time>2022-06-20T12:35:43Z</time>
      </trkpt>
      <trkpt lat="43.94438" lon="6.23791">
        <ele>737.74</ele>
        <time>2022-06-20T12:36:00Z</time>
      </trkpt>
      <trkpt lat="43.94452" lon="6.23787">
        <ele>736.63</ele>
        <time>2022-06-20T12:36:13Z</time>
      </trkpt>
      <trkpt lat="43.94463" lon="6.23774">
        <ele>736.05</ele>
        <time>2022-06-20T12:36:23Z</time>
      </trkpt>
      <trkpt lat="43.94468" lon="6.23764">
        <ele>734.58</ele>
        <time>2022-06-20T12:36:34Z</time>
      </trkpt>
      <trkpt lat="43.94477" lon="6.23756">
        <ele>733.22</ele>
        <time>2022-06-20T12:36:45Z</time>
      </trkpt>
      <trkpt lat="43.94489" lon="6.23749">
        <ele>731.68</ele>
        <time>2022-06-20T12:36:55Z</time>
      </trkpt>
      <trkpt lat="43.94502" lon="6.23741">
        <ele>729.57</ele>
        <time>2022-06-20T12:37:09Z</time>
      </trkpt>
      <trkpt lat="43.94512" lon="6.23729">
        <ele>727.86</ele>
        <time>2022-06-20T12:37:19Z</time>
      </trkpt>
      <trkpt lat="43.94523" lon="6.2372">
        <ele>725.48</ele>
        <time>2022-06-20T12:37:32Z</time>
      </trkpt>
      <trkpt lat="43.94533" lon="6.23711">
        <ele>723.95</ele>
        <time>2022-06-20T12:37:43Z</time>
      </trkpt>
      <trkpt lat="43.94542" lon="6.23702">
        <ele>722.43</ele>
        <time>2022-06-20T12:37:53Z</time>
      </trkpt>
      <trkpt lat="43.94551" lon="6.23695">
        <ele>720.99</ele>
        <time>2022-06-20T12:38:03Z</time>
      </trkpt>
      <trkpt lat="43.94559" lon="6.23692">
        <ele>718.6</ele>
        <time>2022-06-20T12:38:18Z</time>
      </trkpt>
      <trkpt lat="43.94561" lon="6.23676">
        <ele>716.35</ele>
        <time>2022-06-20T12:38:31Z</time>
      </trkpt>
      <trkpt lat="43.94567" lon="6.23664">
        <ele>714.71</ele>
        <time>2022-06-20T12:38:41Z</time>
      </trkpt>
      <trkpt lat="43.94574" lon="6.23654">
        <ele>713.66</ele>
        <time>2022-06-20T12:38:52Z</time>
      </trkpt>
      <trkpt lat="43.94588" lon="6.23655">
        <ele>711.88</ele>
        <time>2022-06-20T12:39:06Z</time>
      </trkpt>
      <trkpt lat="43.94602" lon="6.23652">
        <ele>710.2</ele>
        <time>2022-06-20T12:39:19Z</time>
      </trkpt>
      <trkpt lat="43.94615" lon="6.23649">
        <ele>708.1</ele>
        <time>2022-06-20T12:39:31Z</time>
      </trkpt>
      <trkpt lat="43.94629" lon="6.23642">
        <ele>706.63</ele>
        <time>2022-06-20T12:39:42Z</time>
      </trkpt>
      <trkpt lat="43.94637" lon="6.23634">
        <ele>704.8</ele>
        <time>2022-06-20T12:39:53Z</time>
      </trkpt>
      <trkpt lat="43.94644" lon="6.23623">
        <ele>703.68</ele>
        <time>2022-06-20T12:40:03Z</time>
      </trkpt>
      <trkpt lat="43.94654" lon="6.23624">
        <ele>701.34</ele>
        <time>2022-06-20T12:40:46Z</time>
      </trkpt>
      <trkpt lat="43.94653" lon="6.23624">
        <ele>701.82</ele>
        <time>2022-06-20T12:41:54Z</time>
      </trkpt>
      <trkpt lat="43.94656" lon="6.23631">
        <ele>702.32</ele>
        <time>2022-06-20T12:43:27Z</time>
      </trkpt>
      <trkpt lat="43.94655" lon="6.23648">
        <ele>700.91</ele>
        <time>2022-06-20T12:43:43Z</time>
      </trkpt>
      <trkpt lat="43.94651" lon="6.23668">
        <ele>699.27</ele>
        <time>2022-06-20T12:43:57Z</time>
      </trkpt>
      <trkpt lat="43.94645" lon="6.23686">
        <ele>697.11</ele>
        <time>2022-06-20T12:44:09Z</time>
      </trkpt>
      <trkpt lat="43.94645" lon="6.23701">
        <ele>695.19</ele>
        <time>2022-06-20T12:44:22Z</time>
      </trkpt>
      <trkpt lat="43.94656" lon="6.23703">
        <ele>692.95</ele>
        <time>2022-06-20T12:44:35Z</time>
      </trkpt>
      <trkpt lat="43.94665" lon="6.2371">
        <ele>691.34</ele>
        <time>2022-06-20T12:44:44Z</time>
      </trkpt>
      <trkpt lat="43.94676" lon="6.23717">
        <ele>690.21</ele>
        <time>2022-06-20T12:44:53Z</time>
      </trkpt>
      <trkpt lat="43.94683" lon="6.23728">
        <ele>688.91</ele>
        <time>2022-06-20T12:45:03Z</time>
      </trkpt>
      <trkpt lat="43.94689" lon="6.23745">
        <ele>687.99</ele>
        <time>2022-06-20T12:45:12Z</time>
      </trkpt>
      <trkpt lat="43.94694" lon="6.23757">
        <ele>686.66</ele>
        <time>2022-06-20T12:45:21Z</time>
      </trkpt>
      <trkpt lat="43.94693" lon="6.23774">
        <ele>684.59</ele>
        <time>2022-06-20T12:45:33Z</time>
      </trkpt>
      <trkpt lat="43.94701" lon="6.23784">
        <ele>682.95</ele>
        <time>2022-06-20T12:45:43Z</time>
      </trkpt>
      <trkpt lat="43.94706" lon="6.23797">
        <ele>681.59</ele>
        <time>2022-06-20T12:45:53Z</time>
      </trkpt>
      <trkpt lat="43.94708" lon="6.23813">
        <ele>680.46</ele>
        <time>2022-06-20T12:46:05Z</time>
      </trkpt>
      <trkpt lat="43.94718" lon="6.23819">
        <ele>679.34</ele>
        <time>2022-06-20T12:46:14Z</time>
      </trkpt>
      <trkpt lat="43.9472" lon="6.23831">
        <ele>677.76</ele>
        <time>2022-06-20T12:46:25Z</time>
      </trkpt>
      <trkpt lat="43.94727" lon="6.23841">
        <ele>675.41</ele>
        <time>2022-06-20T12:46:37Z</time>
      </trkpt>
      <trkpt lat="43.94735" lon="6.23839">
        <ele>673.35</ele>
        <time>2022-06-20T12:46:50Z</time>
      </trkpt>
      <trkpt lat="43.94748" lon="6.23842">
        <ele>671.99</ele>
        <time>2022-06-20T12:47:03Z</time>
      </trkpt>
      <trkpt lat="43.9475" lon="6.2385">
        <ele>669.06</ele>
        <time>2022-06-20T12:47:18Z</time>
      </trkpt>
      <trkpt lat="43.94754" lon="6.2386">
        <ele>667.66</ele>
        <time>2022-06-20T12:47:35Z</time>
      </trkpt>
      <trkpt lat="43.94767" lon="6.23868">
        <ele>666.14</ele>
        <time>2022-06-20T12:47:49Z</time>
      </trkpt>
      <trkpt lat="43.94779" lon="6.23878">
        <ele>663.8</ele>
        <time>2022-06-20T12:48:01Z</time>
      </trkpt>
      <trkpt lat="43.94782" lon="6.23891">
        <ele>676.3</ele>
        <time>2022-06-20T12:48:14Z</time>
      </trkpt>
      <trkpt lat="43.94794" lon="6.239">
        <ele>668.7</ele>
      </trkpt>
      <trkpt lat="43.94799" lon="6.23907">
        <ele>665.6</ele>
        <time>2022-06-20T12:49:42Z</time>
      </trkpt>
      <trkpt lat="43.94812" lon="6.23907">
        <ele>657.49</ele>
        <time>2022-06-20T12:49:56Z</time>
      </trkpt>
      <trkpt lat="43.94813" lon="6.23907">
        <ele>660.1</ele>
        <time>2022-06-20T12:50:39Z</time>
      </trkpt>
      <trkpt lat="43.94815" lon="6.23904">
        <ele>660</ele>
        <time>2022-06-20T12:51:16Z</time>
      </trkpt>
      <trkpt lat="43.94818" lon="6.23895">
        <ele>659.3</ele>
        <time>2022-06-20T12:51:29Z</time>
      </trkpt>
      <trkpt lat="43.9482" lon="6.23875">
        <ele>661.01</ele>
        <time>2022-06-20T12:51:41Z</time>
      </trkpt>
      <trkpt lat="43.94815" lon="6.23867">
        <ele>661.17</ele>
        <time>2022-06-20T12:51:51Z</time>
      </trkpt>
      <trkpt lat="43.94812" lon="6.23855">
        <ele>660.54</ele>
        <time>2022-06-20T12:52:04Z</time>
      </trkpt>
      <trkpt lat="43.94812" lon="6.23858">
        <ele>660.4</ele>
        <time>2022-06-20T12:52:24Z</time>
      </trkpt>
      <trkpt lat="43.94817" lon="6.23852">
        <ele>661.62</ele>
        <time>2022-06-20T12:52:45Z</time>
      </trkpt>
      <trkpt lat="43.94813" lon="6.23846">
        <ele>663.41</ele>
        <time>2022-06-20T12:52:59Z</time>
      </trkpt>
      <trkpt lat="43.94807" lon="6.23837">
        <ele>665.55</ele>
        <time>2022-06-20T12:53:15Z</time>
      </trkpt>
      <trkpt lat="43.94803" lon="6.23825">
        <ele>667.48</ele>
        <time>2022-06-20T12:53:29Z</time>
      </trkpt>
      <trkpt lat="43.94796" lon="6.23812">
        <ele>669.34</ele>
        <time>2022-06-20T12:53:42Z</time>
      </trkpt>
      <trkpt lat="43.94794" lon="6.23804">
        <ele>672.03</ele>
        <time>2022-06-20T12:53:58Z</time>
      </trkpt>
      <trkpt lat="43.94784" lon="6.23795">
        <ele>673.97</ele>
        <time>2022-06-20T12:54:12Z</time>
      </trkpt>
      <trkpt lat="43.94786" lon="6.23782">
        <ele>676.02</ele>
        <time>2022-06-20T12:54:26Z</time>
      </trkpt>
      <trkpt lat="43.94783" lon="6.23771">
        <ele>677.93</ele>
        <time>2022-06-20T12:54:41Z</time>
      </trkpt>
      <trkpt lat="43.94778" lon="6.23757">
        <ele>680.27</ele>
        <time>2022-06-20T12:55:02Z</time>
      </trkpt>
      <trkpt lat="43.94781" lon="6.23747">
        <ele>683.09</ele>
        <time>2022-06-20T12:55:15Z</time>
      </trkpt>
      <trkpt lat="43.94776" lon="6.23739">
        <ele>685.33</ele>
        <time>2022-06-20T12:55:36Z</time>
      </trkpt>
      <trkpt lat="43.94776" lon="6.23726">
        <ele>687.04</ele>
        <time>2022-06-20T12:55:49Z</time>
      </trkpt>
      <trkpt lat="43.94774" lon="6.23722">
        <ele>689.88</ele>
        <time>2022-06-20T12:56:14Z</time>
      </trkpt>
      <trkpt lat="43.94778" lon="6.23711">
        <ele>692.44</ele>
        <time>2022-06-20T12:56:30Z</time>
      </trkpt>
      <trkpt lat="43.94772" lon="6.23699">
        <ele>695.5</ele>
        <time>2022-06-20T12:56:54Z</time>
      </trkpt>
      <trkpt lat="43.94767" lon="6.23688">
        <ele>698.43</ele>
        <time>2022-06-20T12:57:11Z</time>
      </trkpt>
      <trkpt lat="43.94759" lon="6.23673">
        <ele>700.92</ele>
        <time>2022-06-20T12:57:29Z</time>
      </trkpt>
      <trkpt lat="43.94753" lon="6.2366">
        <ele>703.11</ele>
        <time>2022-06-20T12:57:45Z</time>
      </trkpt>
      <trkpt lat="43.94756" lon="6.2365">
        <ele>704.73</ele>
        <time>2022-06-20T12:58:01Z</time>
      </trkpt>
      <trkpt lat="43.94752" lon="6.23644">
        <ele>704.19</ele>
        <time>2022-06-20T12:58:47Z</time>
      </trkpt>
      <trkpt lat="43.94752" lon="6.23643">
        <ele>703.89</ele>
        <time>2022-06-20T12:59:55Z</time>
      </trkpt>
      <trkpt lat="43.94755" lon="6.23643">
        <ele>698.5</ele>
        <time>2022-06-20T13:01:43Z</time>
      </trkpt>
      <trkpt lat="43.94751" lon="6.23638">
        <ele>697.4</ele>
      </trkpt>
      <trkpt lat="43.94751" lon="6.23632">
        <ele>698</ele>
      </trkpt>
      <trkpt lat="43.94752" lon="6.2363">
        <ele>698.5</ele>
        <time>2022-06-20T13:02:39Z</time>
      </trkpt>
      <trkpt lat="43.94751" lon="6.23625">
        <ele>698.4</ele>
        <time>2022-06-20T13:02:54Z</time>
      </trkpt>
      <trkpt lat="43.9475" lon="6.23621">
        <ele>698.1</ele>
      </trkpt>
      <trkpt lat="43.94749" lon="6.23615">
        <ele>697.7</ele>
      </trkpt>
      <trkpt lat="43.94748" lon="6.23604">
        <ele>697.7</ele>
        <time>2022-06-20T13:03:07Z</time>
      </trkpt>
      <trkpt lat="43.94749" lon="6.23594">
        <ele>697.7</ele>
        <time>2022-06-20T13:03:18Z</time>
      </trkpt>
      <trkpt lat="43.9475" lon="6.23587">
        <ele>700.58</ele>
        <time>2022-06-20T13:03:31Z</time>
      </trkpt>
      <trkpt lat="43.94757" lon="6.23576">
        <ele>699.32</ele>
        <time>2022-06-20T13:03:45Z</time>
      </trkpt>
      <trkpt lat="43.94761" lon="6.23564">
        <ele>697.71</ele>
        <time>2022-06-20T13:03:55Z</time>
      </trkpt>
      <trkpt lat="43.94758" lon="6.2355">
        <ele>695.89</ele>
        <time>2022-06-20T13:04:05Z</time>
      </trkpt>
      <trkpt lat="43.94753" lon="6.23534">
        <ele>695.49</ele>
        <time>2022-06-20T13:04:14Z</time>
      </trkpt>
      <trkpt lat="43.94749" lon="6.23519">
        <ele>695.36</ele>
        <time>2022-06-20T13:04:24Z</time>
      </trkpt>
      <trkpt lat="43.94748" lon="6.23509">
        <ele>694.86</ele>
        <time>2022-06-20T13:04:42Z</time>
      </trkpt>
      <trkpt lat="43.94745" lon="6.23512">
        <ele>695.5</ele>
        <time>2022-06-20T13:05:11Z</time>
      </trkpt>
      <trkpt lat="43.94745" lon="6.23504">
        <ele>697.56</ele>
        <time>2022-06-20T13:05:39Z</time>
      </trkpt>
      <trkpt lat="43.94746" lon="6.23498">
        <ele>692.99</ele>
        <time>2022-06-20T13:06:00Z</time>
      </trkpt>
      <trkpt lat="43.94743" lon="6.23491">
        <ele>688.6</ele>
        <time>2022-06-20T13:06:17Z</time>
      </trkpt>
      <trkpt lat="43.9474" lon="6.23482">
        <ele>688.1</ele>
        <time>2022-06-20T13:06:31Z</time>
      </trkpt>
      <trkpt lat="43.94738" lon="6.23472">
        <ele>688</ele>
        <time>2022-06-20T13:06:41Z</time>
      </trkpt>
      <trkpt lat="43.94735" lon="6.23462">
        <ele>688.4</ele>
        <time>2022-06-20T13:06:49Z</time>
      </trkpt>
      <trkpt lat="43.94734" lon="6.23457">
        <ele>688.6</ele>
      </trkpt>
      <trkpt lat="43.94733" lon="6.2345">
        <ele>688.5</ele>
        <time>2022-06-20T13:07:00Z</time>
      </trkpt>
      <trkpt lat="43.94731" lon="6.23445">
        <ele>689</ele>
        <time>2022-06-20T13:07:16Z</time>
      </trkpt>
      <trkpt lat="43.94731" lon="6.2344">
        <ele>686.2</ele>
        <time>2022-06-20T13:07:33Z</time>
      </trkpt>
      <trkpt lat="43.94727" lon="6.23427">
        <ele>680.1</ele>
        <time>2022-06-20T13:07:48Z</time>
      </trkpt>
      <trkpt lat="43.94722" lon="6.23419">
        <ele>674.83</ele>
        <time>2022-06-20T13:08:05Z</time>
      </trkpt>
      <trkpt lat="43.94716" lon="6.23415">
        <ele>675.32</ele>
        <time>2022-06-20T13:08:30Z</time>
      </trkpt>
      <trkpt lat="43.94725" lon="6.2341">
        <ele>674.45</ele>
        <time>2022-06-20T13:08:45Z</time>
      </trkpt>
      <trkpt lat="43.94726" lon="6.23403">
        <ele>671.02</ele>
        <time>2022-06-20T13:09:05Z</time>
      </trkpt>
      <trkpt lat="43.94731" lon="6.23395">
        <ele>668.94</ele>
        <time>2022-06-20T13:09:27Z</time>
      </trkpt>
      <trkpt lat="43.94733" lon="6.23382">
        <ele>666.42</ele>
        <time>2022-06-20T13:09:44Z</time>
      </trkpt>
      <trkpt lat="43.9473" lon="6.23377">
        <ele>664.85</ele>
        <time>2022-06-20T13:10:01Z</time>
      </trkpt>
      <trkpt lat="43.94719" lon="6.23374">
        <ele>662.39</ele>
        <time>2022-06-20T13:10:23Z</time>
      </trkpt>
      <trkpt lat="43.94723" lon="6.23371">
        <ele>659.95</ele>
        <time>2022-06-20T13:10:42Z</time>
      </trkpt>
      <trkpt lat="43.94716" lon="6.2336">
        <ele>658.28</ele>
        <time>2022-06-20T13:10:57Z</time>
      </trkpt>
      <trkpt lat="43.94716" lon="6.23345">
        <ele>657.17</ele>
        <time>2022-06-20T13:11:11Z</time>
      </trkpt>
      <trkpt lat="43.9471" lon="6.23337">
        <ele>638.4</ele>
        <time>2022-06-20T13:11:26Z</time>
      </trkpt>
      <trkpt lat="43.94705" lon="6.2334">
        <ele>637.6</ele>
        <time>2022-06-20T13:12:58Z</time>
      </trkpt>
      <trkpt lat="43.947" lon="6.2334">
        <ele>635.8</ele>
        <time>2022-06-20T13:13:26Z</time>
      </trkpt>
      <trkpt lat="43.9469" lon="6.23334">
        <ele>641</ele>
        <time>2022-06-20T13:18:14Z</time>
      </trkpt>
      <trkpt lat="43.94688" lon="6.23327">
        <ele>642.2</ele>
      </trkpt>
      <trkpt lat="43.94685" lon="6.2332">
        <ele>645.9</ele>
      </trkpt>
      <trkpt lat="43.94684" lon="6.2331">
        <ele>642.8</ele>
      </trkpt>
      <trkpt lat="43.94685" lon="6.23305">
        <ele>639.1</ele>
        <time>2022-06-20T13:21:36Z</time>
      </trkpt>
      <trkpt lat="43.94691" lon="6.23281">
        <ele>630.1</ele>
        <time>2022-06-20T13:22:45Z</time>
      </trkpt>
      <trkpt lat="43.94691" lon="6.23276">
        <ele>629.4</ele>
        <time>2022-06-20T13:23:01Z</time>
      </trkpt>
      <trkpt lat="43.94692" lon="6.23271">
        <ele>628.6</ele>
        <time>2022-06-20T13:23:17Z</time>
      </trkpt>
      <trkpt lat="43.94693" lon="6.23265">
        <ele>627.4</ele>
        <time>2022-06-20T13:23:31Z</time>
      </trkpt>
      <trkpt lat="43.94692" lon="6.2326">
        <ele>628.6</ele>
        <time>2022-06-20T13:23:45Z</time>
      </trkpt>
      <trkpt lat="43.94694" lon="6.23247">
        <ele>627</ele>
        <time>2022-06-20T13:23:58Z</time>
      </trkpt>
      <trkpt lat="43.94688" lon="6.23232">
        <ele>628.4</ele>
        <time>2022-06-20T13:24:18Z</time>
      </trkpt>
      <trkpt lat="43.94692" lon="6.23224">
        <ele>634.86</ele>
        <time>2022-06-20T13:24:40Z</time>
      </trkpt>
      <trkpt lat="43.94703" lon="6.23221">
        <ele>634.25</ele>
        <time>2022-06-20T13:25:04Z</time>
      </trkpt>
      <trkpt lat="43.94702" lon="6.23206">
        <ele>634.97</ele>
        <time>2022-06-20T13:25:21Z</time>
      </trkpt>
      <trkpt lat="43.94701" lon="6.23198">
        <ele>637.9</ele>
        <time>2022-06-20T13:25:42Z</time>
      </trkpt>
      <trkpt lat="43.94717" lon="6.23202">
        <ele>637.4</ele>
        <time>2022-06-20T13:26:06Z</time>
      </trkpt>
      <trkpt lat="43.94706" lon="6.23181">
        <ele>636.81</ele>
        <time>2022-06-20T13:26:18Z</time>
      </trkpt>
      <trkpt lat="43.94709" lon="6.23168">
        <ele>636.18</ele>
        <time>2022-06-20T13:26:31Z</time>
      </trkpt>
      <trkpt lat="43.94716" lon="6.23178">
        <ele>634.83</ele>
        <time>2022-06-20T13:26:52Z</time>
      </trkpt>
      <trkpt lat="43.94708" lon="6.23157">
        <ele>647.3</ele>
        <time>2022-06-20T13:27:25Z</time>
      </trkpt>
      <trkpt lat="43.94718" lon="6.23149">
        <ele>643</ele>
      </trkpt>
      <trkpt lat="43.94743" lon="6.23126">
        <ele>632.61</ele>
        <time>2022-06-20T13:27:59Z</time>
      </trkpt>
      <trkpt lat="43.94751" lon="6.2311">
        <ele>632.81</ele>
        <time>2022-06-20T13:28:22Z</time>
      </trkpt>
      <trkpt lat="43.94768" lon="6.23085">
        <ele>633.28</ele>
        <time>2022-06-20T13:28:43Z</time>
      </trkpt>
      <trkpt lat="43.94763" lon="6.23077">
        <ele>633.47</ele>
        <time>2022-06-20T13:28:54Z</time>
      </trkpt>
      <trkpt lat="43.94766" lon="6.23062">
        <ele>633.39</ele>
        <time>2022-06-20T13:29:05Z</time>
      </trkpt>
      <trkpt lat="43.94763" lon="6.23049">
        <ele>632.79</ele>
        <time>2022-06-20T13:29:14Z</time>
      </trkpt>
      <trkpt lat="43.94765" lon="6.23034">
        <ele>632.63</ele>
        <time>2022-06-20T13:29:22Z</time>
      </trkpt>
      <trkpt lat="43.94766" lon="6.2302">
        <ele>632.05</ele>
        <time>2022-06-20T13:29:31Z</time>
      </trkpt>
      <trkpt lat="43.94766" lon="6.23007">
        <ele>631.32</ele>
        <time>2022-06-20T13:29:39Z</time>
      </trkpt>
      <trkpt lat="43.94769" lon="6.22989">
        <ele>630.57</ele>
        <time>2022-06-20T13:29:49Z</time>
      </trkpt>
      <trkpt lat="43.9477" lon="6.22973">
        <ele>630.35</ele>
        <time>2022-06-20T13:29:58Z</time>
      </trkpt>
      <trkpt lat="43.94774" lon="6.2296">
        <ele>629.84</ele>
        <time>2022-06-20T13:30:06Z</time>
      </trkpt>
      <trkpt lat="43.94773" lon="6.22948">
        <ele>629.54</ele>
        <time>2022-06-20T13:30:13Z</time>
      </trkpt>
      <trkpt lat="43.94777" lon="6.22929">
        <ele>628.96</ele>
        <time>2022-06-20T13:30:24Z</time>
      </trkpt>
      <trkpt lat="43.94785" lon="6.22916">
        <ele>628.55</ele>
        <time>2022-06-20T13:30:33Z</time>
      </trkpt>
      <trkpt lat="43.94779" lon="6.22904">
        <ele>628.3</ele>
        <time>2022-06-20T13:30:41Z</time>
      </trkpt>
      <trkpt lat="43.94776" lon="6.22894">
        <ele>618.9</ele>
        <time>2022-06-20T13:30:49Z</time>
      </trkpt>
      <trkpt lat="43.94778" lon="6.22879">
        <ele>619</ele>
        <time>2022-06-20T13:30:58Z</time>
      </trkpt>
      <trkpt lat="43.94781" lon="6.22868">
        <ele>619.4</ele>
        <time>2022-06-20T13:31:06Z</time>
      </trkpt>
      <trkpt lat="43.94786" lon="6.22856">
        <ele>618.5</ele>
        <time>2022-06-20T13:31:14Z</time>
      </trkpt>
      <trkpt lat="43.94789" lon="6.22847">
        <ele>617.1</ele>
        <time>2022-06-20T13:31:25Z</time>
      </trkpt>
      <trkpt lat="43.94791" lon="6.22837">
        <ele>615.8</ele>
        <time>2022-06-20T13:31:45Z</time>
      </trkpt>
      <trkpt lat="43.94794" lon="6.22828">
        <ele>624.16</ele>
        <time>2022-06-20T13:32:01Z</time>
      </trkpt>
      <trkpt lat="43.94784" lon="6.22816">
        <ele>623.85</ele>
        <time>2022-06-20T13:32:15Z</time>
      </trkpt>
      <trkpt lat="43.94778" lon="6.22794">
        <ele>622.45</ele>
        <time>2022-06-20T13:32:35Z</time>
      </trkpt>
      <trkpt lat="43.94773" lon="6.22783">
        <ele>622.17</ele>
        <time>2022-06-20T13:32:48Z</time>
      </trkpt>
      <trkpt lat="43.94772" lon="6.22778">
        <ele>619.39</ele>
        <time>2022-06-20T13:33:12Z</time>
      </trkpt>
      <trkpt lat="43.9478" lon="6.22771">
        <ele>620.16</ele>
        <time>2022-06-20T13:33:32Z</time>
      </trkpt>
      <trkpt lat="43.94788" lon="6.22772">
        <ele>621.04</ele>
        <time>2022-06-20T13:33:48Z</time>
      </trkpt>
      <trkpt lat="43.94776" lon="6.22785">
        <ele>622.19</ele>
        <time>2022-06-20T13:34:11Z</time>
      </trkpt>
      <trkpt lat="43.94767" lon="6.22785">
        <ele>620.61</ele>
        <time>2022-06-20T13:34:31Z</time>
      </trkpt>
      <trkpt lat="43.94764" lon="6.22776">
        <ele>619.97</ele>
        <time>2022-06-20T13:34:55Z</time>
      </trkpt>
      <trkpt lat="43.94757" lon="6.22769">
        <ele>620.1</ele>
        <time>2022-06-20T13:35:23Z</time>
      </trkpt>
      <trkpt lat="43.94757" lon="6.22767">
        <ele>618.5</ele>
      </trkpt>
      <trkpt lat="43.94746" lon="6.22766">
        <ele>622.2</ele>
        <time>2022-06-20T13:37:36Z</time>
      </trkpt>
      <trkpt lat="43.94739" lon="6.22747">
        <ele>621.29</ele>
        <time>2022-06-20T13:37:53Z</time>
      </trkpt>
      <trkpt lat="43.94737" lon="6.22735">
        <ele>620.72</ele>
        <time>2022-06-20T13:38:08Z</time>
      </trkpt>
      <trkpt lat="43.94729" lon="6.22725">
        <ele>616.1</ele>
        <time>2022-06-20T13:38:21Z</time>
      </trkpt>
      <trkpt lat="43.94726" lon="6.22717">
        <ele>614.4</ele>
        <time>2022-06-20T13:38:31Z</time>
      </trkpt>
      <trkpt lat="43.94723" lon="6.22707">
        <ele>611.8</ele>
        <time>2022-06-20T13:38:40Z</time>
      </trkpt>
      <trkpt lat="43.94715" lon="6.22692">
        <ele>618.2</ele>
        <time>2022-06-20T13:39:04Z</time>
      </trkpt>
      <trkpt lat="43.94713" lon="6.22681">
        <ele>613.1</ele>
        <time>2022-06-20T13:39:18Z</time>
      </trkpt>
      <trkpt lat="43.94708" lon="6.2267">
        <ele>614.3</ele>
        <time>2022-06-20T13:39:57Z</time>
      </trkpt>
      <trkpt lat="43.94703" lon="6.22657">
        <ele>614.8</ele>
        <time>2022-06-20T13:41:01Z</time>
      </trkpt>
      <trkpt lat="43.94701" lon="6.22646">
        <ele>613.9</ele>
        <time>2022-06-20T13:41:16Z</time>
      </trkpt>
      <trkpt lat="43.94699" lon="6.2264">
        <ele>613.3</ele>
        <time>2022-06-20T13:41:32Z</time>
      </trkpt>
      <trkpt lat="43.94696" lon="6.2263">
        <ele>613.4</ele>
        <time>2022-06-20T13:41:45Z</time>
      </trkpt>
      <trkpt lat="43.94695" lon="6.22615">
        <ele>613.1</ele>
        <time>2022-06-20T13:41:58Z</time>
      </trkpt>
      <trkpt lat="43.94697" lon="6.22605">
        <ele>612.6</ele>
        <time>2022-06-20T13:42:12Z</time>
      </trkpt>
      <trkpt lat="43.94696" lon="6.22593">
        <ele>613.3</ele>
        <time>2022-06-20T13:42:24Z</time>
      </trkpt>
      <trkpt lat="43.94703" lon="6.22579">
        <ele>611.9</ele>
        <time>2022-06-20T13:42:35Z</time>
      </trkpt>
      <trkpt lat="43.94712" lon="6.22569">
        <ele>610.3</ele>
        <time>2022-06-20T13:42:48Z</time>
      </trkpt>
      <trkpt lat="43.94721" lon="6.2256">
        <ele>608</ele>
      </trkpt>
      <trkpt lat="43.94726" lon="6.22554">
        <ele>607.6</ele>
        <time>2022-06-20T13:43:04Z</time>
      </trkpt>
      <trkpt lat="43.94728" lon="6.2255">
        <ele>617.67</ele>
        <time>2022-06-20T13:43:36Z</time>
      </trkpt>
      <trkpt lat="43.94721" lon="6.22548">
        <ele>617.4</ele>
        <time>2022-06-20T13:43:53Z</time>
      </trkpt>
      <trkpt lat="43.94719" lon="6.22548">
        <ele>617.22</ele>
        <time>2022-06-20T13:44:17Z</time>
      </trkpt>
      <trkpt lat="43.9472" lon="6.22543">
        <ele>617.27</ele>
        <time>2022-06-20T13:44:48Z</time>
      </trkpt>
      <trkpt lat="43.94712" lon="6.22542">
        <ele>617.26</ele>
        <time>2022-06-20T13:45:10Z</time>
      </trkpt>
      <trkpt lat="43.94715" lon="6.22543">
        <ele>617.08</ele>
        <time>2022-06-20T13:45:36Z</time>
      </trkpt>
      <trkpt lat="43.94724" lon="6.22542">
        <ele>616.78</ele>
        <time>2022-06-20T13:45:51Z</time>
      </trkpt>
      <trkpt lat="43.94731" lon="6.22547">
        <ele>607.2</ele>
        <time>2022-06-20T13:46:08Z</time>
      </trkpt>
      <trkpt lat="43.94735" lon="6.22549">
        <ele>606.5</ele>
        <time>2022-06-20T13:46:27Z</time>
      </trkpt>
      <trkpt lat="43.94746" lon="6.22556">
        <ele>616.43</ele>
        <time>2022-06-20T13:46:40Z</time>
      </trkpt>
      <trkpt lat="43.94755" lon="6.22562">
        <ele>616.24</ele>
        <time>2022-06-20T13:46:54Z</time>
      </trkpt>
      <trkpt lat="43.94765" lon="6.22553">
        <ele>615.46</ele>
        <time>2022-06-20T13:47:05Z</time>
      </trkpt>
      <trkpt lat="43.94772" lon="6.22542">
        <ele>615.43</ele>
        <time>2022-06-20T13:47:15Z</time>
      </trkpt>
      <trkpt lat="43.94778" lon="6.22532">
        <ele>603</ele>
        <time>2022-06-20T13:47:25Z</time>
      </trkpt>
      <trkpt lat="43.94784" lon="6.2252">
        <ele>603.2</ele>
        <time>2022-06-20T13:47:36Z</time>
      </trkpt>
      <trkpt lat="43.9479" lon="6.22507">
        <ele>603.1</ele>
        <time>2022-06-20T13:47:48Z</time>
      </trkpt>
      <trkpt lat="43.94795" lon="6.22495">
        <ele>602.8</ele>
        <time>2022-06-20T13:47:57Z</time>
      </trkpt>
      <trkpt lat="43.94799" lon="6.22485">
        <ele>602.5</ele>
        <time>2022-06-20T13:48:07Z</time>
      </trkpt>
      <trkpt lat="43.94802" lon="6.22472">
        <ele>602</ele>
        <time>2022-06-20T13:48:18Z</time>
      </trkpt>
      <trkpt lat="43.94803" lon="6.22454">
        <ele>601.4</ele>
        <time>2022-06-20T13:48:29Z</time>
      </trkpt>
      <trkpt lat="43.94807" lon="6.22443">
        <ele>601</ele>
        <time>2022-06-20T13:48:40Z</time>
      </trkpt>
      <trkpt lat="43.9481" lon="6.22433">
        <ele>601.2</ele>
        <time>2022-06-20T13:48:51Z</time>
      </trkpt>
      <trkpt lat="43.94811" lon="6.22425">
        <ele>601.2</ele>
      </trkpt>
      <trkpt lat="43.94813" lon="6.22413">
        <ele>601.1</ele>
        <time>2022-06-20T13:49:03Z</time>
      </trkpt>
      <trkpt lat="43.94814" lon="6.22399">
        <ele>600.7</ele>
        <time>2022-06-20T13:49:16Z</time>
      </trkpt>
      <trkpt lat="43.94817" lon="6.2239">
        <ele>600.5</ele>
        <time>2022-06-20T13:49:32Z</time>
      </trkpt>
      <trkpt lat="43.94818" lon="6.22382">
        <ele>600.4</ele>
        <time>2022-06-20T13:49:47Z</time>
      </trkpt>
      <trkpt lat="43.94816" lon="6.22363">
        <ele>600.4</ele>
        <time>2022-06-20T13:50:01Z</time>
      </trkpt>
      <trkpt lat="43.94815" lon="6.22342">
        <ele>600.6</ele>
        <time>2022-06-20T13:50:15Z</time>
      </trkpt>
      <trkpt lat="43.9481" lon="6.22327">
        <ele>600.5</ele>
      </trkpt>
      <trkpt lat="43.94809" lon="6.2232">
        <ele>600.7</ele>
        <time>2022-06-20T13:50:28Z</time>
      </trkpt>
      <trkpt lat="43.94811" lon="6.22283">
        <ele>603</ele>
      </trkpt>
      <trkpt lat="43.94812" lon="6.22274">
        <ele>603.7</ele>
        <time>2022-06-20T13:50:40Z</time>
      </trkpt>
      <trkpt lat="43.94814" lon="6.22256">
        <ele>616.6</ele>
        <time>2022-06-20T13:50:51Z</time>
      </trkpt>
      <trkpt lat="43.9482" lon="6.22242">
        <ele>617.06</ele>
        <time>2022-06-20T13:51:03Z</time>
      </trkpt>
      <trkpt lat="43.94826" lon="6.22231">
        <ele>617.2</ele>
        <time>2022-06-20T13:51:14Z</time>
      </trkpt>
      <trkpt lat="43.9483" lon="6.22212">
        <ele>618.8</ele>
        <time>2022-06-20T13:51:28Z</time>
      </trkpt>
      <trkpt lat="43.94825" lon="6.22197">
        <ele>619.14</ele>
        <time>2022-06-20T13:51:37Z</time>
      </trkpt>
      <trkpt lat="43.9482" lon="6.22184">
        <ele>618.96</ele>
        <time>2022-06-20T13:51:48Z</time>
      </trkpt>
      <trkpt lat="43.94817" lon="6.22181">
        <ele>618.3</ele>
        <time>2022-06-20T13:52:10Z</time>
      </trkpt>
    </trkseg>
  </trk>
</gpx>